<?xml version="1.0" encoding="UTF-8" standalone="no" ?>
<gpx xmlns="http://www.topografix.com/GPX/1/1" xmlns:xsi="http://www.w3.org/2001/XMLSchema-instance" xsi:schemaLocation="http://www.topografix.com/GPX/1/1 http://www.topografix.com/GPX/1/1/gpx.xsd" version="1.1" creator="VisuGPX - https://www.visugpx.com">
  <metadata>
    <name>Montcalm et Estats depuis Lartigue</name>
    <desc><![CDATA[Au départ du parking de Lartigue, monté vers le refuge Pinet et ascension du pic d'Estats et du Montcalm avant de redescendre vers le parking après un dernier arrêt au refuge.  ]]></desc>
  </metadata>
  <trk>
    <name><![CDATA[Tracé actuel: 27 SEPT 2016 09:45]]></name>
    <trkseg>
      <trkpt lat="42.71035" lon="1.42584">
        <ele>1171.5</ele>
        <time>2016-09-27T07:45:06Z</time>
      </trkpt>
      <trkpt lat="42.71029" lon="1.42583">
        <ele>1171.5</ele>
        <time>2016-09-27T07:45:26Z</time>
      </trkpt>
      <trkpt lat="42.71018" lon="1.42573">
        <ele>1171.5</ele>
        <time>2016-09-27T07:45:37Z</time>
      </trkpt>
      <trkpt lat="42.71016" lon="1.4257">
        <ele>1171.5</ele>
        <time>2016-09-27T07:45:40Z</time>
      </trkpt>
      <trkpt lat="42.71015" lon="1.42567">
        <ele>1171.5</ele>
        <time>2016-09-27T07:45:42Z</time>
      </trkpt>
      <trkpt lat="42.71016" lon="1.42564">
        <ele>1171.5</ele>
        <time>2016-09-27T07:45:44Z</time>
      </trkpt>
      <trkpt lat="42.71019" lon="1.42553">
        <ele>1172.95</ele>
        <time>2016-09-27T07:45:57Z</time>
      </trkpt>
      <trkpt lat="42.71023" lon="1.42549">
        <ele>1175.83</ele>
        <time>2016-09-27T07:46:06Z</time>
      </trkpt>
      <trkpt lat="42.71026" lon="1.42549">
        <ele>1178.71</ele>
        <time>2016-09-27T07:46:11Z</time>
      </trkpt>
      <trkpt lat="42.71031" lon="1.42547">
        <ele>1180.16</ele>
        <time>2016-09-27T07:46:17Z</time>
      </trkpt>
      <trkpt lat="42.7103" lon="1.42538">
        <ele>1180.64</ele>
        <time>2016-09-27T07:46:31Z</time>
      </trkpt>
      <trkpt lat="42.71029" lon="1.42536">
        <ele>1181.6</ele>
        <time>2016-09-27T07:46:34Z</time>
      </trkpt>
      <trkpt lat="42.71033" lon="1.42533">
        <ele>1181.6</ele>
        <time>2016-09-27T07:46:38Z</time>
      </trkpt>
      <trkpt lat="42.71038" lon="1.42531">
        <ele>1182.56</ele>
        <time>2016-09-27T07:46:43Z</time>
      </trkpt>
      <trkpt lat="42.71038" lon="1.42527">
        <ele>1183.04</ele>
        <time>2016-09-27T07:46:45Z</time>
      </trkpt>
      <trkpt lat="42.71036" lon="1.42525">
        <ele>1183.04</ele>
        <time>2016-09-27T07:46:47Z</time>
      </trkpt>
      <trkpt lat="42.71029" lon="1.42507">
        <ele>1184.96</ele>
        <time>2016-09-27T07:47:01Z</time>
      </trkpt>
      <trkpt lat="42.71026" lon="1.42497">
        <ele>1185.44</ele>
        <time>2016-09-27T07:47:07Z</time>
      </trkpt>
      <trkpt lat="42.71015" lon="1.42482">
        <ele>1185.92</ele>
        <time>2016-09-27T07:47:21Z</time>
      </trkpt>
      <trkpt lat="42.7101" lon="1.42474">
        <ele>1185.92</ele>
        <time>2016-09-27T07:47:37Z</time>
      </trkpt>
      <trkpt lat="42.71009" lon="1.42475">
        <ele>1185.92</ele>
        <time>2016-09-27T07:47:57Z</time>
      </trkpt>
      <trkpt lat="42.71004" lon="1.4246">
        <ele>1185.44</ele>
        <time>2016-09-27T07:48:09Z</time>
      </trkpt>
      <trkpt lat="42.70999" lon="1.42442">
        <ele>1185.44</ele>
        <time>2016-09-27T07:48:20Z</time>
      </trkpt>
      <trkpt lat="42.70996" lon="1.42433">
        <ele>1185.44</ele>
        <time>2016-09-27T07:48:26Z</time>
      </trkpt>
      <trkpt lat="42.70991" lon="1.42413">
        <ele>1185.44</ele>
        <time>2016-09-27T07:48:36Z</time>
      </trkpt>
      <trkpt lat="42.7099" lon="1.42407">
        <ele>1185.44</ele>
        <time>2016-09-27T07:48:39Z</time>
      </trkpt>
      <trkpt lat="42.70983" lon="1.42383">
        <ele>1185.44</ele>
        <time>2016-09-27T07:48:52Z</time>
      </trkpt>
      <trkpt lat="42.7098" lon="1.42361">
        <ele>1185.44</ele>
        <time>2016-09-27T07:49:04Z</time>
      </trkpt>
      <trkpt lat="42.70976" lon="1.42342">
        <ele>1185.44</ele>
        <time>2016-09-27T07:49:14Z</time>
      </trkpt>
      <trkpt lat="42.70972" lon="1.42338">
        <ele>1185.44</ele>
        <time>2016-09-27T07:49:17Z</time>
      </trkpt>
      <trkpt lat="42.70965" lon="1.42319">
        <ele>1185.44</ele>
        <time>2016-09-27T07:49:29Z</time>
      </trkpt>
      <trkpt lat="42.70965" lon="1.42312">
        <ele>1185.44</ele>
        <time>2016-09-27T07:49:33Z</time>
      </trkpt>
      <trkpt lat="42.70963" lon="1.42289">
        <ele>1185.44</ele>
        <time>2016-09-27T07:49:45Z</time>
      </trkpt>
      <trkpt lat="42.70963" lon="1.42283">
        <ele>1185.44</ele>
        <time>2016-09-27T07:49:48Z</time>
      </trkpt>
      <trkpt lat="42.70962" lon="1.4227">
        <ele>1185.44</ele>
        <time>2016-09-27T07:49:54Z</time>
      </trkpt>
      <trkpt lat="42.70961" lon="1.4226">
        <ele>1185.92</ele>
        <time>2016-09-27T07:50:01Z</time>
      </trkpt>
      <trkpt lat="42.70958" lon="1.42242">
        <ele>1185.92</ele>
        <time>2016-09-27T07:50:12Z</time>
      </trkpt>
      <trkpt lat="42.70956" lon="1.42236">
        <ele>1185.92</ele>
        <time>2016-09-27T07:50:16Z</time>
      </trkpt>
      <trkpt lat="42.70955" lon="1.4223">
        <ele>1185.92</ele>
        <time>2016-09-27T07:50:19Z</time>
      </trkpt>
      <trkpt lat="42.70953" lon="1.42217">
        <ele>1185.92</ele>
        <time>2016-09-27T07:50:26Z</time>
      </trkpt>
      <trkpt lat="42.70954" lon="1.42196">
        <ele>1185.44</ele>
        <time>2016-09-27T07:50:38Z</time>
      </trkpt>
      <trkpt lat="42.70953" lon="1.42189">
        <ele>1185.44</ele>
        <time>2016-09-27T07:50:43Z</time>
      </trkpt>
      <trkpt lat="42.70951" lon="1.42181">
        <ele>1185.44</ele>
        <time>2016-09-27T07:50:47Z</time>
      </trkpt>
      <trkpt lat="42.70949" lon="1.42177">
        <ele>1185.44</ele>
        <time>2016-09-27T07:50:50Z</time>
      </trkpt>
      <trkpt lat="42.70945" lon="1.42161">
        <ele>1185.44</ele>
        <time>2016-09-27T07:51:00Z</time>
      </trkpt>
      <trkpt lat="42.70943" lon="1.42149">
        <ele>1186.4</ele>
        <time>2016-09-27T07:51:12Z</time>
      </trkpt>
      <trkpt lat="42.7094" lon="1.42133">
        <ele>1188.81</ele>
        <time>2016-09-27T07:51:24Z</time>
      </trkpt>
      <trkpt lat="42.70935" lon="1.42124">
        <ele>1191.69</ele>
        <time>2016-09-27T07:51:33Z</time>
      </trkpt>
      <trkpt lat="42.70933" lon="1.42117">
        <ele>1195.54</ele>
        <time>2016-09-27T07:51:38Z</time>
      </trkpt>
      <trkpt lat="42.70929" lon="1.42104">
        <ele>1198.42</ele>
        <time>2016-09-27T07:51:51Z</time>
      </trkpt>
      <trkpt lat="42.7093" lon="1.4209">
        <ele>1199.38</ele>
        <time>2016-09-27T07:52:04Z</time>
      </trkpt>
      <trkpt lat="42.70929" lon="1.42078">
        <ele>1200.82</ele>
        <time>2016-09-27T07:52:12Z</time>
      </trkpt>
      <trkpt lat="42.70923" lon="1.42064">
        <ele>1201.3</ele>
        <time>2016-09-27T07:52:24Z</time>
      </trkpt>
      <trkpt lat="42.70919" lon="1.42054">
        <ele>1202.27</ele>
        <time>2016-09-27T07:52:34Z</time>
      </trkpt>
      <trkpt lat="42.7092" lon="1.42038">
        <ele>1202.27</ele>
        <time>2016-09-27T07:52:45Z</time>
      </trkpt>
      <trkpt lat="42.70921" lon="1.42033">
        <ele>1202.27</ele>
        <time>2016-09-27T07:52:48Z</time>
      </trkpt>
      <trkpt lat="42.70922" lon="1.42015">
        <ele>1202.75</ele>
        <time>2016-09-27T07:53:00Z</time>
      </trkpt>
      <trkpt lat="42.70923" lon="1.42004">
        <ele>1203.23</ele>
        <time>2016-09-27T07:53:06Z</time>
      </trkpt>
      <trkpt lat="42.70924" lon="1.41992">
        <ele>1204.19</ele>
        <time>2016-09-27T07:53:17Z</time>
      </trkpt>
      <trkpt lat="42.70932" lon="1.41975">
        <ele>1206.59</ele>
        <time>2016-09-27T07:53:29Z</time>
      </trkpt>
      <trkpt lat="42.70937" lon="1.41953">
        <ele>1208.51</ele>
        <time>2016-09-27T07:53:41Z</time>
      </trkpt>
      <trkpt lat="42.70938" lon="1.41951">
        <ele>1209</ele>
        <time>2016-09-27T07:53:45Z</time>
      </trkpt>
      <trkpt lat="42.70938" lon="1.4195">
        <ele>1209</ele>
        <time>2016-09-27T07:53:47Z</time>
      </trkpt>
      <trkpt lat="42.70939" lon="1.41939">
        <ele>1209.48</ele>
        <time>2016-09-27T07:53:53Z</time>
      </trkpt>
      <trkpt lat="42.7094" lon="1.41916">
        <ele>1209.96</ele>
        <time>2016-09-27T07:54:04Z</time>
      </trkpt>
      <trkpt lat="42.7094" lon="1.41914">
        <ele>1209.96</ele>
        <time>2016-09-27T07:54:05Z</time>
      </trkpt>
      <trkpt lat="42.70939" lon="1.41897">
        <ele>1209.96</ele>
        <time>2016-09-27T07:54:15Z</time>
      </trkpt>
      <trkpt lat="42.70939" lon="1.41893">
        <ele>1208.51</ele>
        <time>2016-09-27T07:54:17Z</time>
      </trkpt>
      <trkpt lat="42.70934" lon="1.41881">
        <ele>1208.03</ele>
        <time>2016-09-27T07:54:23Z</time>
      </trkpt>
      <trkpt lat="42.7093" lon="1.41872">
        <ele>1207.07</ele>
        <time>2016-09-27T07:54:28Z</time>
      </trkpt>
      <trkpt lat="42.70931" lon="1.41862">
        <ele>1206.59</ele>
        <time>2016-09-27T07:54:34Z</time>
      </trkpt>
      <trkpt lat="42.70932" lon="1.41847">
        <ele>1206.59</ele>
        <time>2016-09-27T07:54:47Z</time>
      </trkpt>
      <trkpt lat="42.70931" lon="1.41841">
        <ele>1206.59</ele>
        <time>2016-09-27T07:54:49Z</time>
      </trkpt>
      <trkpt lat="42.70926" lon="1.41819">
        <ele>1208.03</ele>
        <time>2016-09-27T07:55:02Z</time>
      </trkpt>
      <trkpt lat="42.70926" lon="1.41799">
        <ele>1209</ele>
        <time>2016-09-27T07:55:17Z</time>
      </trkpt>
      <trkpt lat="42.70926" lon="1.41788">
        <ele>1209.96</ele>
        <time>2016-09-27T07:55:23Z</time>
      </trkpt>
      <trkpt lat="42.70924" lon="1.41782">
        <ele>1209.96</ele>
        <time>2016-09-27T07:55:28Z</time>
      </trkpt>
      <trkpt lat="42.70919" lon="1.41772">
        <ele>1210.92</ele>
        <time>2016-09-27T07:55:37Z</time>
      </trkpt>
      <trkpt lat="42.70916" lon="1.41756">
        <ele>1211.88</ele>
        <time>2016-09-27T07:55:49Z</time>
      </trkpt>
      <trkpt lat="42.70909" lon="1.41736">
        <ele>1212.84</ele>
        <time>2016-09-27T07:56:03Z</time>
      </trkpt>
      <trkpt lat="42.70908" lon="1.41734">
        <ele>1212.84</ele>
        <time>2016-09-27T07:56:05Z</time>
      </trkpt>
      <trkpt lat="42.70901" lon="1.41717">
        <ele>1215.24</ele>
        <time>2016-09-27T07:56:20Z</time>
      </trkpt>
      <trkpt lat="42.70901" lon="1.41717">
        <ele>1215.24</ele>
        <time>2016-09-27T07:56:21Z</time>
      </trkpt>
      <trkpt lat="42.70906" lon="1.41707">
        <ele>1216.69</ele>
        <time>2016-09-27T07:56:32Z</time>
      </trkpt>
      <trkpt lat="42.70906" lon="1.41702">
        <ele>1217.65</ele>
        <time>2016-09-27T07:56:36Z</time>
      </trkpt>
      <trkpt lat="42.70898" lon="1.4168">
        <ele>1219.57</ele>
        <time>2016-09-27T07:56:49Z</time>
      </trkpt>
      <trkpt lat="42.70894" lon="1.41659">
        <ele>1221.01</ele>
        <time>2016-09-27T07:57:02Z</time>
      </trkpt>
      <trkpt lat="42.70892" lon="1.41643">
        <ele>1222.45</ele>
        <time>2016-09-27T07:57:15Z</time>
      </trkpt>
      <trkpt lat="42.7089" lon="1.41636">
        <ele>1222.93</ele>
        <time>2016-09-27T07:57:22Z</time>
      </trkpt>
      <trkpt lat="42.70891" lon="1.41621">
        <ele>1223.9</ele>
        <time>2016-09-27T07:57:35Z</time>
      </trkpt>
      <trkpt lat="42.70891" lon="1.41618">
        <ele>1224.86</ele>
        <time>2016-09-27T07:57:38Z</time>
      </trkpt>
      <trkpt lat="42.7089" lon="1.41614">
        <ele>1225.82</ele>
        <time>2016-09-27T07:57:45Z</time>
      </trkpt>
      <trkpt lat="42.70886" lon="1.41595">
        <ele>1226.78</ele>
        <time>2016-09-27T07:57:58Z</time>
      </trkpt>
      <trkpt lat="42.70886" lon="1.41579">
        <ele>1228.22</ele>
        <time>2016-09-27T07:58:11Z</time>
      </trkpt>
      <trkpt lat="42.70892" lon="1.41572">
        <ele>1229.18</ele>
        <time>2016-09-27T07:58:20Z</time>
      </trkpt>
      <trkpt lat="42.70893" lon="1.41557">
        <ele>1231.11</ele>
        <time>2016-09-27T07:58:32Z</time>
      </trkpt>
      <trkpt lat="42.70894" lon="1.41549">
        <ele>1233.03</ele>
        <time>2016-09-27T07:58:42Z</time>
      </trkpt>
      <trkpt lat="42.70892" lon="1.41539">
        <ele>1234.95</ele>
        <time>2016-09-27T07:58:54Z</time>
      </trkpt>
      <trkpt lat="42.70887" lon="1.41533">
        <ele>1237.35</ele>
        <time>2016-09-27T07:59:05Z</time>
      </trkpt>
      <trkpt lat="42.70882" lon="1.41533">
        <ele>1240.24</ele>
        <time>2016-09-27T07:59:16Z</time>
      </trkpt>
      <trkpt lat="42.70879" lon="1.41532">
        <ele>1243.12</ele>
        <time>2016-09-27T07:59:21Z</time>
      </trkpt>
      <trkpt lat="42.70874" lon="1.4153">
        <ele>1244.56</ele>
        <time>2016-09-27T07:59:31Z</time>
      </trkpt>
      <trkpt lat="42.70868" lon="1.41528">
        <ele>1245.04</ele>
        <time>2016-09-27T07:59:42Z</time>
      </trkpt>
      <trkpt lat="42.70864" lon="1.41532">
        <ele>1246.49</ele>
        <time>2016-09-27T07:59:51Z</time>
      </trkpt>
      <trkpt lat="42.70856" lon="1.41533">
        <ele>1248.89</ele>
        <time>2016-09-27T08:00:05Z</time>
      </trkpt>
      <trkpt lat="42.7085" lon="1.41528">
        <ele>1250.33</ele>
        <time>2016-09-27T08:00:16Z</time>
      </trkpt>
      <trkpt lat="42.70842" lon="1.4153">
        <ele>1253.7</ele>
        <time>2016-09-27T08:00:26Z</time>
      </trkpt>
      <trkpt lat="42.7084" lon="1.4153">
        <ele>1255.62</ele>
        <time>2016-09-27T08:00:29Z</time>
      </trkpt>
      <trkpt lat="42.70833" lon="1.41541">
        <ele>1257.54</ele>
        <time>2016-09-27T08:00:41Z</time>
      </trkpt>
      <trkpt lat="42.70829" lon="1.41551">
        <ele>1258.5</ele>
        <time>2016-09-27T08:00:52Z</time>
      </trkpt>
      <trkpt lat="42.70827" lon="1.4156">
        <ele>1260.43</ele>
        <time>2016-09-27T08:01:05Z</time>
      </trkpt>
      <trkpt lat="42.70827" lon="1.4156">
        <ele>1260.91</ele>
        <time>2016-09-27T08:01:06Z</time>
      </trkpt>
      <trkpt lat="42.70825" lon="1.41566">
        <ele>1262.35</ele>
        <time>2016-09-27T08:01:16Z</time>
      </trkpt>
      <trkpt lat="42.70819" lon="1.41566">
        <ele>1264.75</ele>
        <time>2016-09-27T08:01:27Z</time>
      </trkpt>
      <trkpt lat="42.7082" lon="1.41573">
        <ele>1266.19</ele>
        <time>2016-09-27T08:01:41Z</time>
      </trkpt>
      <trkpt lat="42.7082" lon="1.41578">
        <ele>1268.12</ele>
        <time>2016-09-27T08:01:51Z</time>
      </trkpt>
      <trkpt lat="42.70819" lon="1.41584">
        <ele>1270.52</ele>
        <time>2016-09-27T08:02:02Z</time>
      </trkpt>
      <trkpt lat="42.70813" lon="1.41582">
        <ele>1271.96</ele>
        <time>2016-09-27T08:02:13Z</time>
      </trkpt>
      <trkpt lat="42.7081" lon="1.41585">
        <ele>1272.92</ele>
        <time>2016-09-27T08:02:17Z</time>
      </trkpt>
      <trkpt lat="42.70809" lon="1.41592">
        <ele>1274.85</ele>
        <time>2016-09-27T08:02:29Z</time>
      </trkpt>
      <trkpt lat="42.70809" lon="1.41599">
        <ele>1277.25</ele>
        <time>2016-09-27T08:02:38Z</time>
      </trkpt>
      <trkpt lat="42.70811" lon="1.41599">
        <ele>1280.61</ele>
        <time>2016-09-27T08:02:43Z</time>
      </trkpt>
      <trkpt lat="42.70809" lon="1.41603">
        <ele>1281.09</ele>
        <time>2016-09-27T08:02:58Z</time>
      </trkpt>
      <trkpt lat="42.70808" lon="1.41603">
        <ele>1281.09</ele>
        <time>2016-09-27T08:03:00Z</time>
      </trkpt>
      <trkpt lat="42.70804" lon="1.41609">
        <ele>1281.57</ele>
        <time>2016-09-27T08:03:11Z</time>
      </trkpt>
      <trkpt lat="42.70803" lon="1.41606">
        <ele>1283.98</ele>
        <time>2016-09-27T08:03:28Z</time>
      </trkpt>
      <trkpt lat="42.70797" lon="1.41603">
        <ele>1284.46</ele>
        <time>2016-09-27T08:03:51Z</time>
      </trkpt>
      <trkpt lat="42.70797" lon="1.41603">
        <ele>1284.46</ele>
        <time>2016-09-27T08:03:58Z</time>
      </trkpt>
      <trkpt lat="42.70795" lon="1.4161">
        <ele>1286.38</ele>
        <time>2016-09-27T08:04:08Z</time>
      </trkpt>
      <trkpt lat="42.70792" lon="1.41609">
        <ele>1288.3</ele>
        <time>2016-09-27T08:04:18Z</time>
      </trkpt>
      <trkpt lat="42.70791" lon="1.41609">
        <ele>1288.78</ele>
        <time>2016-09-27T08:04:20Z</time>
      </trkpt>
      <trkpt lat="42.70788" lon="1.41612">
        <ele>1292.63</ele>
        <time>2016-09-27T08:04:26Z</time>
      </trkpt>
      <trkpt lat="42.70788" lon="1.41613">
        <ele>1294.07</ele>
        <time>2016-09-27T08:04:29Z</time>
      </trkpt>
      <trkpt lat="42.70784" lon="1.41615">
        <ele>1294.55</ele>
        <time>2016-09-27T08:04:37Z</time>
      </trkpt>
      <trkpt lat="42.70783" lon="1.41621">
        <ele>1295.03</ele>
        <time>2016-09-27T08:04:46Z</time>
      </trkpt>
      <trkpt lat="42.70779" lon="1.41628">
        <ele>1297.44</ele>
        <time>2016-09-27T08:04:58Z</time>
      </trkpt>
      <trkpt lat="42.70776" lon="1.41632">
        <ele>1298.88</ele>
        <time>2016-09-27T08:05:08Z</time>
      </trkpt>
      <trkpt lat="42.70776" lon="1.41633">
        <ele>1299.84</ele>
        <time>2016-09-27T08:05:12Z</time>
      </trkpt>
      <trkpt lat="42.7077" lon="1.41635">
        <ele>1302.24</ele>
        <time>2016-09-27T08:05:25Z</time>
      </trkpt>
      <trkpt lat="42.70762" lon="1.4164">
        <ele>1304.17</ele>
        <time>2016-09-27T08:05:35Z</time>
      </trkpt>
      <trkpt lat="42.70756" lon="1.41639">
        <ele>1306.57</ele>
        <time>2016-09-27T08:05:47Z</time>
      </trkpt>
      <trkpt lat="42.7075" lon="1.41643">
        <ele>1309.45</ele>
        <time>2016-09-27T08:05:54Z</time>
      </trkpt>
      <trkpt lat="42.7075" lon="1.41647">
        <ele>1312.82</ele>
        <time>2016-09-27T08:06:02Z</time>
      </trkpt>
      <trkpt lat="42.70748" lon="1.41654">
        <ele>1312.82</ele>
        <time>2016-09-27T08:06:15Z</time>
      </trkpt>
      <trkpt lat="42.70747" lon="1.41656">
        <ele>1313.78</ele>
        <time>2016-09-27T08:06:17Z</time>
      </trkpt>
      <trkpt lat="42.70745" lon="1.41659">
        <ele>1314.26</ele>
        <time>2016-09-27T08:06:24Z</time>
      </trkpt>
      <trkpt lat="42.70733" lon="1.41667">
        <ele>1316.66</ele>
        <time>2016-09-27T08:06:37Z</time>
      </trkpt>
      <trkpt lat="42.7073" lon="1.41672">
        <ele>1319.07</ele>
        <time>2016-09-27T08:06:49Z</time>
      </trkpt>
      <trkpt lat="42.70722" lon="1.41675">
        <ele>1321.47</ele>
        <time>2016-09-27T08:07:01Z</time>
      </trkpt>
      <trkpt lat="42.70722" lon="1.41681">
        <ele>1325.31</ele>
        <time>2016-09-27T08:07:09Z</time>
      </trkpt>
      <trkpt lat="42.7072" lon="1.41682">
        <ele>1328.2</ele>
        <time>2016-09-27T08:07:14Z</time>
      </trkpt>
      <trkpt lat="42.70719" lon="1.41693">
        <ele>1328.68</ele>
        <time>2016-09-27T08:07:25Z</time>
      </trkpt>
      <trkpt lat="42.70714" lon="1.41693">
        <ele>1328.68</ele>
        <time>2016-09-27T08:07:43Z</time>
      </trkpt>
      <trkpt lat="42.70712" lon="1.41698">
        <ele>1329.16</ele>
        <time>2016-09-27T08:07:54Z</time>
      </trkpt>
      <trkpt lat="42.70707" lon="1.41707">
        <ele>1331.08</ele>
        <time>2016-09-27T08:08:05Z</time>
      </trkpt>
      <trkpt lat="42.70701" lon="1.41712">
        <ele>1333.01</ele>
        <time>2016-09-27T08:08:16Z</time>
      </trkpt>
      <trkpt lat="42.70696" lon="1.41711">
        <ele>1335.41</ele>
        <time>2016-09-27T08:08:27Z</time>
      </trkpt>
      <trkpt lat="42.70697" lon="1.4171">
        <ele>1338.77</ele>
        <time>2016-09-27T08:08:32Z</time>
      </trkpt>
      <trkpt lat="42.70698" lon="1.41702">
        <ele>1340.7</ele>
        <time>2016-09-27T08:08:45Z</time>
      </trkpt>
      <trkpt lat="42.70693" lon="1.41687">
        <ele>1341.18</ele>
        <time>2016-09-27T08:08:57Z</time>
      </trkpt>
      <trkpt lat="42.7069" lon="1.41673">
        <ele>1343.1</ele>
        <time>2016-09-27T08:09:11Z</time>
      </trkpt>
      <trkpt lat="42.7069" lon="1.41673">
        <ele>1344.54</ele>
        <time>2016-09-27T08:09:20Z</time>
      </trkpt>
      <trkpt lat="42.70681" lon="1.4166">
        <ele>1347.91</ele>
        <time>2016-09-27T08:09:34Z</time>
      </trkpt>
      <trkpt lat="42.70681" lon="1.41659">
        <ele>1348.87</ele>
        <time>2016-09-27T08:09:35Z</time>
      </trkpt>
      <trkpt lat="42.70678" lon="1.41645">
        <ele>1351.27</ele>
        <time>2016-09-27T08:09:48Z</time>
      </trkpt>
      <trkpt lat="42.70678" lon="1.41643">
        <ele>1351.27</ele>
        <time>2016-09-27T08:09:51Z</time>
      </trkpt>
      <trkpt lat="42.70678" lon="1.41633">
        <ele>1352.71</ele>
        <time>2016-09-27T08:10:00Z</time>
      </trkpt>
      <trkpt lat="42.7068" lon="1.41621">
        <ele>1354.15</ele>
        <time>2016-09-27T08:10:11Z</time>
      </trkpt>
      <trkpt lat="42.70679" lon="1.41606">
        <ele>1356.56</ele>
        <time>2016-09-27T08:10:23Z</time>
      </trkpt>
      <trkpt lat="42.70678" lon="1.41603">
        <ele>1356.56</ele>
        <time>2016-09-27T08:10:26Z</time>
      </trkpt>
      <trkpt lat="42.70672" lon="1.41593">
        <ele>1358.48</ele>
        <time>2016-09-27T08:10:39Z</time>
      </trkpt>
      <trkpt lat="42.70671" lon="1.41589">
        <ele>1361.84</ele>
        <time>2016-09-27T08:10:45Z</time>
      </trkpt>
      <trkpt lat="42.7067" lon="1.41584">
        <ele>1364.73</ele>
        <time>2016-09-27T08:10:50Z</time>
      </trkpt>
      <trkpt lat="42.70665" lon="1.41582">
        <ele>1365.21</ele>
        <time>2016-09-27T08:11:04Z</time>
      </trkpt>
      <trkpt lat="42.70661" lon="1.41576">
        <ele>1367.13</ele>
        <time>2016-09-27T08:11:15Z</time>
      </trkpt>
      <trkpt lat="42.70661" lon="1.41569">
        <ele>1368.09</ele>
        <time>2016-09-27T08:11:22Z</time>
      </trkpt>
      <trkpt lat="42.70658" lon="1.41561">
        <ele>1370.5</ele>
        <time>2016-09-27T08:11:34Z</time>
      </trkpt>
      <trkpt lat="42.70656" lon="1.41552">
        <ele>1372.42</ele>
        <time>2016-09-27T08:11:46Z</time>
      </trkpt>
      <trkpt lat="42.70657" lon="1.41545">
        <ele>1374.34</ele>
        <time>2016-09-27T08:11:56Z</time>
      </trkpt>
      <trkpt lat="42.70651" lon="1.41536">
        <ele>1376.26</ele>
        <time>2016-09-27T08:12:07Z</time>
      </trkpt>
      <trkpt lat="42.70651" lon="1.4153">
        <ele>1378.19</ele>
        <time>2016-09-27T08:12:17Z</time>
      </trkpt>
      <trkpt lat="42.7065" lon="1.41524">
        <ele>1380.59</ele>
        <time>2016-09-27T08:12:29Z</time>
      </trkpt>
      <trkpt lat="42.7065" lon="1.41518">
        <ele>1382.51</ele>
        <time>2016-09-27T08:12:40Z</time>
      </trkpt>
      <trkpt lat="42.7065" lon="1.41513">
        <ele>1385.88</ele>
        <time>2016-09-27T08:12:48Z</time>
      </trkpt>
      <trkpt lat="42.70659" lon="1.41516">
        <ele>1388.28</ele>
        <time>2016-09-27T08:12:57Z</time>
      </trkpt>
      <trkpt lat="42.7067" lon="1.41513">
        <ele>1386.84</ele>
        <time>2016-09-27T08:13:06Z</time>
      </trkpt>
      <trkpt lat="42.70671" lon="1.41508">
        <ele>1386.84</ele>
        <time>2016-09-27T08:13:10Z</time>
      </trkpt>
      <trkpt lat="42.70672" lon="1.41503">
        <ele>1386.36</ele>
        <time>2016-09-27T08:13:15Z</time>
      </trkpt>
      <trkpt lat="42.70674" lon="1.41497">
        <ele>1385.88</ele>
        <time>2016-09-27T08:13:20Z</time>
      </trkpt>
      <trkpt lat="42.70674" lon="1.41495">
        <ele>1385.88</ele>
        <time>2016-09-27T08:13:22Z</time>
      </trkpt>
      <trkpt lat="42.70674" lon="1.41486">
        <ele>1385.88</ele>
        <time>2016-09-27T08:13:33Z</time>
      </trkpt>
      <trkpt lat="42.70674" lon="1.41485">
        <ele>1385.88</ele>
        <time>2016-09-27T08:13:36Z</time>
      </trkpt>
      <trkpt lat="42.70674" lon="1.41482">
        <ele>1385.88</ele>
        <time>2016-09-27T08:13:38Z</time>
      </trkpt>
      <trkpt lat="42.70673" lon="1.41461">
        <ele>1387.32</ele>
        <time>2016-09-27T08:13:52Z</time>
      </trkpt>
      <trkpt lat="42.70672" lon="1.41446">
        <ele>1387.32</ele>
        <time>2016-09-27T08:14:04Z</time>
      </trkpt>
      <trkpt lat="42.70671" lon="1.41441">
        <ele>1387.32</ele>
        <time>2016-09-27T08:14:08Z</time>
      </trkpt>
      <trkpt lat="42.7067" lon="1.41437">
        <ele>1387.32</ele>
        <time>2016-09-27T08:14:13Z</time>
      </trkpt>
      <trkpt lat="42.70671" lon="1.41431">
        <ele>1387.8</ele>
        <time>2016-09-27T08:14:18Z</time>
      </trkpt>
      <trkpt lat="42.70676" lon="1.4142">
        <ele>1387.8</ele>
        <time>2016-09-27T08:14:28Z</time>
      </trkpt>
      <trkpt lat="42.70679" lon="1.41411">
        <ele>1387.8</ele>
        <time>2016-09-27T08:14:35Z</time>
      </trkpt>
      <trkpt lat="42.7068" lon="1.41395">
        <ele>1387.8</ele>
        <time>2016-09-27T08:14:48Z</time>
      </trkpt>
      <trkpt lat="42.70678" lon="1.41385">
        <ele>1387.8</ele>
        <time>2016-09-27T08:14:57Z</time>
      </trkpt>
      <trkpt lat="42.70677" lon="1.41375">
        <ele>1388.76</ele>
        <time>2016-09-27T08:15:07Z</time>
      </trkpt>
      <trkpt lat="42.70678" lon="1.41366">
        <ele>1390.2</ele>
        <time>2016-09-27T08:15:16Z</time>
      </trkpt>
      <trkpt lat="42.70677" lon="1.41351">
        <ele>1390.68</ele>
        <time>2016-09-27T08:15:26Z</time>
      </trkpt>
      <trkpt lat="42.70679" lon="1.41342">
        <ele>1391.65</ele>
        <time>2016-09-27T08:15:34Z</time>
      </trkpt>
      <trkpt lat="42.70679" lon="1.41337">
        <ele>1392.13</ele>
        <time>2016-09-27T08:15:38Z</time>
      </trkpt>
      <trkpt lat="42.70679" lon="1.41331">
        <ele>1392.61</ele>
        <time>2016-09-27T08:15:43Z</time>
      </trkpt>
      <trkpt lat="42.7068" lon="1.41319">
        <ele>1393.57</ele>
        <time>2016-09-27T08:15:54Z</time>
      </trkpt>
      <trkpt lat="42.70679" lon="1.41317">
        <ele>1393.57</ele>
        <time>2016-09-27T08:15:56Z</time>
      </trkpt>
      <trkpt lat="42.70677" lon="1.41313">
        <ele>1394.53</ele>
        <time>2016-09-27T08:15:59Z</time>
      </trkpt>
      <trkpt lat="42.70675" lon="1.41312">
        <ele>1395.01</ele>
        <time>2016-09-27T08:16:01Z</time>
      </trkpt>
      <trkpt lat="42.70675" lon="1.4131">
        <ele>1395.01</ele>
        <time>2016-09-27T08:16:03Z</time>
      </trkpt>
      <trkpt lat="42.70677" lon="1.41291">
        <ele>1395.97</ele>
        <time>2016-09-27T08:16:14Z</time>
      </trkpt>
      <trkpt lat="42.70677" lon="1.41277">
        <ele>1396.45</ele>
        <time>2016-09-27T08:16:23Z</time>
      </trkpt>
      <trkpt lat="42.70677" lon="1.41266">
        <ele>1396.45</ele>
        <time>2016-09-27T08:16:33Z</time>
      </trkpt>
      <trkpt lat="42.70677" lon="1.41252">
        <ele>1397.89</ele>
        <time>2016-09-27T08:16:44Z</time>
      </trkpt>
      <trkpt lat="42.70679" lon="1.41239">
        <ele>1399.34</ele>
        <time>2016-09-27T08:16:56Z</time>
      </trkpt>
      <trkpt lat="42.70681" lon="1.41232">
        <ele>1399.82</ele>
        <time>2016-09-27T08:17:01Z</time>
      </trkpt>
      <trkpt lat="42.70685" lon="1.41218">
        <ele>1400.3</ele>
        <time>2016-09-27T08:17:11Z</time>
      </trkpt>
      <trkpt lat="42.70686" lon="1.41208">
        <ele>1401.26</ele>
        <time>2016-09-27T08:17:23Z</time>
      </trkpt>
      <trkpt lat="42.70686" lon="1.41196">
        <ele>1402.7</ele>
        <time>2016-09-27T08:17:35Z</time>
      </trkpt>
      <trkpt lat="42.70689" lon="1.41184">
        <ele>1404.14</ele>
        <time>2016-09-27T08:17:46Z</time>
      </trkpt>
      <trkpt lat="42.7069" lon="1.41175">
        <ele>1406.07</ele>
        <time>2016-09-27T08:17:55Z</time>
      </trkpt>
      <trkpt lat="42.70693" lon="1.41167">
        <ele>1407.51</ele>
        <time>2016-09-27T08:18:06Z</time>
      </trkpt>
      <trkpt lat="42.70692" lon="1.41159">
        <ele>1408.95</ele>
        <time>2016-09-27T08:18:18Z</time>
      </trkpt>
      <trkpt lat="42.70693" lon="1.4115">
        <ele>1411.35</ele>
        <time>2016-09-27T08:18:31Z</time>
      </trkpt>
      <trkpt lat="42.70696" lon="1.4114">
        <ele>1413.28</ele>
        <time>2016-09-27T08:18:42Z</time>
      </trkpt>
      <trkpt lat="42.70694" lon="1.41132">
        <ele>1416.16</ele>
        <time>2016-09-27T08:18:56Z</time>
      </trkpt>
      <trkpt lat="42.70694" lon="1.41117">
        <ele>1417.6</ele>
        <time>2016-09-27T08:19:08Z</time>
      </trkpt>
      <trkpt lat="42.70689" lon="1.41111">
        <ele>1419.52</ele>
        <time>2016-09-27T08:19:19Z</time>
      </trkpt>
      <trkpt lat="42.70687" lon="1.41099">
        <ele>1420.97</ele>
        <time>2016-09-27T08:19:31Z</time>
      </trkpt>
      <trkpt lat="42.70686" lon="1.41097">
        <ele>1420.97</ele>
        <time>2016-09-27T08:19:32Z</time>
      </trkpt>
      <trkpt lat="42.70684" lon="1.41093">
        <ele>1421.45</ele>
        <time>2016-09-27T08:19:35Z</time>
      </trkpt>
      <trkpt lat="42.70685" lon="1.41079">
        <ele>1423.85</ele>
        <time>2016-09-27T08:19:49Z</time>
      </trkpt>
      <trkpt lat="42.70683" lon="1.41068">
        <ele>1426.25</ele>
        <time>2016-09-27T08:20:02Z</time>
      </trkpt>
      <trkpt lat="42.70679" lon="1.41058">
        <ele>1427.7</ele>
        <time>2016-09-27T08:20:13Z</time>
      </trkpt>
      <trkpt lat="42.70672" lon="1.41059">
        <ele>1429.14</ele>
        <time>2016-09-27T08:20:37Z</time>
      </trkpt>
      <trkpt lat="42.70666" lon="1.4105">
        <ele>1430.58</ele>
        <time>2016-09-27T08:20:49Z</time>
      </trkpt>
      <trkpt lat="42.70666" lon="1.4104">
        <ele>1432.98</ele>
        <time>2016-09-27T08:21:00Z</time>
      </trkpt>
      <trkpt lat="42.70665" lon="1.41028">
        <ele>1435.39</ele>
        <time>2016-09-27T08:21:12Z</time>
      </trkpt>
      <trkpt lat="42.70663" lon="1.41026">
        <ele>1437.79</ele>
        <time>2016-09-27T08:21:25Z</time>
      </trkpt>
      <trkpt lat="42.70657" lon="1.41027">
        <ele>1440.19</ele>
        <time>2016-09-27T08:21:37Z</time>
      </trkpt>
      <trkpt lat="42.70655" lon="1.41037">
        <ele>1442.6</ele>
        <time>2016-09-27T08:21:48Z</time>
      </trkpt>
      <trkpt lat="42.70652" lon="1.41035">
        <ele>1445</ele>
        <time>2016-09-27T08:22:00Z</time>
      </trkpt>
      <trkpt lat="42.7065" lon="1.41035">
        <ele>1448.36</ele>
        <time>2016-09-27T08:22:04Z</time>
      </trkpt>
      <trkpt lat="42.70644" lon="1.41028">
        <ele>1449.81</ele>
        <time>2016-09-27T08:22:15Z</time>
      </trkpt>
      <trkpt lat="42.70639" lon="1.41027">
        <ele>1449.81</ele>
        <time>2016-09-27T08:22:33Z</time>
      </trkpt>
      <trkpt lat="42.70644" lon="1.41017">
        <ele>1449.81</ele>
        <time>2016-09-27T08:22:44Z</time>
      </trkpt>
      <trkpt lat="42.70646" lon="1.41007">
        <ele>1450.77</ele>
        <time>2016-09-27T08:22:55Z</time>
      </trkpt>
      <trkpt lat="42.70646" lon="1.41003">
        <ele>1451.25</ele>
        <time>2016-09-27T08:22:58Z</time>
      </trkpt>
      <trkpt lat="42.70639" lon="1.40989">
        <ele>1452.69</ele>
        <time>2016-09-27T08:23:11Z</time>
      </trkpt>
      <trkpt lat="42.70637" lon="1.4098">
        <ele>1454.13</ele>
        <time>2016-09-27T08:23:20Z</time>
      </trkpt>
      <trkpt lat="42.70636" lon="1.40969">
        <ele>1455.09</ele>
        <time>2016-09-27T08:23:31Z</time>
      </trkpt>
      <trkpt lat="42.70638" lon="1.40956">
        <ele>1456.53</ele>
        <time>2016-09-27T08:23:42Z</time>
      </trkpt>
      <trkpt lat="42.70639" lon="1.4095">
        <ele>1458.46</ele>
        <time>2016-09-27T08:23:52Z</time>
      </trkpt>
      <trkpt lat="42.70641" lon="1.40938">
        <ele>1460.38</ele>
        <time>2016-09-27T08:24:03Z</time>
      </trkpt>
      <trkpt lat="42.70641" lon="1.40929">
        <ele>1461.34</ele>
        <time>2016-09-27T08:24:12Z</time>
      </trkpt>
      <trkpt lat="42.70644" lon="1.40917">
        <ele>1463.26</ele>
        <time>2016-09-27T08:24:26Z</time>
      </trkpt>
      <trkpt lat="42.70645" lon="1.40916">
        <ele>1464.23</ele>
        <time>2016-09-27T08:24:29Z</time>
      </trkpt>
      <trkpt lat="42.70649" lon="1.4091">
        <ele>1464.23</ele>
        <time>2016-09-27T08:24:35Z</time>
      </trkpt>
      <trkpt lat="42.70647" lon="1.40898">
        <ele>1466.15</ele>
        <time>2016-09-27T08:24:47Z</time>
      </trkpt>
      <trkpt lat="42.7065" lon="1.40886">
        <ele>1467.59</ele>
        <time>2016-09-27T08:24:57Z</time>
      </trkpt>
      <trkpt lat="42.70649" lon="1.4088">
        <ele>1469.03</ele>
        <time>2016-09-27T08:25:11Z</time>
      </trkpt>
      <trkpt lat="42.70648" lon="1.40867">
        <ele>1470.95</ele>
        <time>2016-09-27T08:25:24Z</time>
      </trkpt>
      <trkpt lat="42.70647" lon="1.40857">
        <ele>1472.4</ele>
        <time>2016-09-27T08:25:34Z</time>
      </trkpt>
      <trkpt lat="42.70645" lon="1.40852">
        <ele>1473.36</ele>
        <time>2016-09-27T08:25:39Z</time>
      </trkpt>
      <trkpt lat="42.70644" lon="1.40842">
        <ele>1474.32</ele>
        <time>2016-09-27T08:25:50Z</time>
      </trkpt>
      <trkpt lat="42.70641" lon="1.40835">
        <ele>1476.24</ele>
        <time>2016-09-27T08:26:00Z</time>
      </trkpt>
      <trkpt lat="42.70641" lon="1.40829">
        <ele>1477.68</ele>
        <time>2016-09-27T08:26:12Z</time>
      </trkpt>
      <trkpt lat="42.70641" lon="1.40827">
        <ele>1479.13</ele>
        <time>2016-09-27T08:26:17Z</time>
      </trkpt>
      <trkpt lat="42.70639" lon="1.40819">
        <ele>1480.57</ele>
        <time>2016-09-27T08:26:29Z</time>
      </trkpt>
      <trkpt lat="42.70637" lon="1.40814">
        <ele>1481.53</ele>
        <time>2016-09-27T08:26:35Z</time>
      </trkpt>
      <trkpt lat="42.70628" lon="1.40806">
        <ele>1483.93</ele>
        <time>2016-09-27T08:26:47Z</time>
      </trkpt>
      <trkpt lat="42.70624" lon="1.40804">
        <ele>1485.85</ele>
        <time>2016-09-27T08:26:59Z</time>
      </trkpt>
      <trkpt lat="42.70616" lon="1.40802">
        <ele>1487.78</ele>
        <time>2016-09-27T08:27:11Z</time>
      </trkpt>
      <trkpt lat="42.7061" lon="1.40795">
        <ele>1488.74</ele>
        <time>2016-09-27T08:27:22Z</time>
      </trkpt>
      <trkpt lat="42.7061" lon="1.40793">
        <ele>1490.66</ele>
        <time>2016-09-27T08:27:33Z</time>
      </trkpt>
      <trkpt lat="42.70604" lon="1.40793">
        <ele>1493.55</ele>
        <time>2016-09-27T08:27:47Z</time>
      </trkpt>
      <trkpt lat="42.70598" lon="1.40795">
        <ele>1496.91</ele>
        <time>2016-09-27T08:27:57Z</time>
      </trkpt>
      <trkpt lat="42.70595" lon="1.40796">
        <ele>1497.39</ele>
        <time>2016-09-27T08:28:05Z</time>
      </trkpt>
      <trkpt lat="42.7059" lon="1.40797">
        <ele>1497.39</ele>
        <time>2016-09-27T08:28:12Z</time>
      </trkpt>
      <trkpt lat="42.70585" lon="1.40803">
        <ele>1498.83</ele>
        <time>2016-09-27T08:28:25Z</time>
      </trkpt>
      <trkpt lat="42.70583" lon="1.40804">
        <ele>1500.27</ele>
        <time>2016-09-27T08:28:36Z</time>
      </trkpt>
      <trkpt lat="42.70578" lon="1.40808">
        <ele>1501.72</ele>
        <time>2016-09-27T08:28:55Z</time>
      </trkpt>
      <trkpt lat="42.70573" lon="1.40809">
        <ele>1503.64</ele>
        <time>2016-09-27T08:29:08Z</time>
      </trkpt>
      <trkpt lat="42.70567" lon="1.40807">
        <ele>1507</ele>
        <time>2016-09-27T08:29:17Z</time>
      </trkpt>
      <trkpt lat="42.70563" lon="1.40806">
        <ele>1509.89</ele>
        <time>2016-09-27T08:29:22Z</time>
      </trkpt>
      <trkpt lat="42.70562" lon="1.408">
        <ele>1511.33</ele>
        <time>2016-09-27T08:29:32Z</time>
      </trkpt>
      <trkpt lat="42.7056" lon="1.40793">
        <ele>1511.81</ele>
        <time>2016-09-27T08:29:44Z</time>
      </trkpt>
      <trkpt lat="42.70559" lon="1.40788">
        <ele>1512.29</ele>
        <time>2016-09-27T08:29:52Z</time>
      </trkpt>
      <trkpt lat="42.70558" lon="1.40778">
        <ele>1514.21</ele>
        <time>2016-09-27T08:30:04Z</time>
      </trkpt>
      <trkpt lat="42.70555" lon="1.40773">
        <ele>1515.66</ele>
        <time>2016-09-27T08:30:15Z</time>
      </trkpt>
      <trkpt lat="42.70555" lon="1.40771">
        <ele>1516.14</ele>
        <time>2016-09-27T08:30:27Z</time>
      </trkpt>
      <trkpt lat="42.70556" lon="1.40759">
        <ele>1517.58</ele>
        <time>2016-09-27T08:30:39Z</time>
      </trkpt>
      <trkpt lat="42.70555" lon="1.40752">
        <ele>1518.54</ele>
        <time>2016-09-27T08:30:47Z</time>
      </trkpt>
      <trkpt lat="42.7055" lon="1.40748">
        <ele>1520.94</ele>
        <time>2016-09-27T08:30:59Z</time>
      </trkpt>
      <trkpt lat="42.7055" lon="1.4074">
        <ele>1522.87</ele>
        <time>2016-09-27T08:31:09Z</time>
      </trkpt>
      <trkpt lat="42.70547" lon="1.40734">
        <ele>1524.31</ele>
        <time>2016-09-27T08:31:20Z</time>
      </trkpt>
      <trkpt lat="42.70543" lon="1.40732">
        <ele>1525.75</ele>
        <time>2016-09-27T08:31:30Z</time>
      </trkpt>
      <trkpt lat="42.70539" lon="1.40733">
        <ele>1528.15</ele>
        <time>2016-09-27T08:31:41Z</time>
      </trkpt>
      <trkpt lat="42.70532" lon="1.40734">
        <ele>1530.56</ele>
        <time>2016-09-27T08:31:55Z</time>
      </trkpt>
      <trkpt lat="42.70531" lon="1.40733">
        <ele>1532.48</ele>
        <time>2016-09-27T08:32:09Z</time>
      </trkpt>
      <trkpt lat="42.70533" lon="1.40725">
        <ele>1534.4</ele>
        <time>2016-09-27T08:32:21Z</time>
      </trkpt>
      <trkpt lat="42.70534" lon="1.40716">
        <ele>1536.32</ele>
        <time>2016-09-27T08:32:31Z</time>
      </trkpt>
      <trkpt lat="42.70532" lon="1.40712">
        <ele>1539.69</ele>
        <time>2016-09-27T08:32:38Z</time>
      </trkpt>
      <trkpt lat="42.70531" lon="1.40705">
        <ele>1539.69</ele>
        <time>2016-09-27T08:32:49Z</time>
      </trkpt>
      <trkpt lat="42.70531" lon="1.407">
        <ele>1540.65</ele>
        <time>2016-09-27T08:32:59Z</time>
      </trkpt>
      <trkpt lat="42.7053" lon="1.40697">
        <ele>1543.05</ele>
        <time>2016-09-27T08:33:15Z</time>
      </trkpt>
      <trkpt lat="42.70529" lon="1.40695">
        <ele>1543.53</ele>
        <time>2016-09-27T08:33:29Z</time>
      </trkpt>
      <trkpt lat="42.70527" lon="1.40688">
        <ele>1544.01</ele>
        <time>2016-09-27T08:33:48Z</time>
      </trkpt>
      <trkpt lat="42.70524" lon="1.40688">
        <ele>1545.94</ele>
        <time>2016-09-27T08:33:59Z</time>
      </trkpt>
      <trkpt lat="42.70522" lon="1.40681">
        <ele>1548.82</ele>
        <time>2016-09-27T08:34:13Z</time>
      </trkpt>
      <trkpt lat="42.70516" lon="1.40675">
        <ele>1550.74</ele>
        <time>2016-09-27T08:34:26Z</time>
      </trkpt>
      <trkpt lat="42.70517" lon="1.40666">
        <ele>1552.19</ele>
        <time>2016-09-27T08:34:35Z</time>
      </trkpt>
      <trkpt lat="42.70513" lon="1.40659">
        <ele>1553.63</ele>
        <time>2016-09-27T08:34:45Z</time>
      </trkpt>
      <trkpt lat="42.70514" lon="1.40656">
        <ele>1554.59</ele>
        <time>2016-09-27T08:35:00Z</time>
      </trkpt>
      <trkpt lat="42.70512" lon="1.40653">
        <ele>1556.03</ele>
        <time>2016-09-27T08:35:12Z</time>
      </trkpt>
      <trkpt lat="42.70509" lon="1.40658">
        <ele>1557.47</ele>
        <time>2016-09-27T08:35:24Z</time>
      </trkpt>
      <trkpt lat="42.70507" lon="1.4066">
        <ele>1559.88</ele>
        <time>2016-09-27T08:35:38Z</time>
      </trkpt>
      <trkpt lat="42.70504" lon="1.40667">
        <ele>1561.8</ele>
        <time>2016-09-27T08:35:48Z</time>
      </trkpt>
      <trkpt lat="42.70498" lon="1.40667">
        <ele>1563.72</ele>
        <time>2016-09-27T08:36:00Z</time>
      </trkpt>
      <trkpt lat="42.70498" lon="1.40665">
        <ele>1564.2</ele>
        <time>2016-09-27T08:36:02Z</time>
      </trkpt>
      <trkpt lat="42.70495" lon="1.40659">
        <ele>1566.12</ele>
        <time>2016-09-27T08:36:13Z</time>
      </trkpt>
      <trkpt lat="42.70494" lon="1.40653">
        <ele>1568.53</ele>
        <time>2016-09-27T08:36:20Z</time>
      </trkpt>
      <trkpt lat="42.70494" lon="1.40652">
        <ele>1569.97</ele>
        <time>2016-09-27T08:36:22Z</time>
      </trkpt>
      <trkpt lat="42.70492" lon="1.40651">
        <ele>1570.93</ele>
        <time>2016-09-27T08:36:38Z</time>
      </trkpt>
      <trkpt lat="42.70493" lon="1.40651">
        <ele>1569.49</ele>
        <time>2016-09-27T08:37:02Z</time>
      </trkpt>
      <trkpt lat="42.70492" lon="1.40649">
        <ele>1569.49</ele>
        <time>2016-09-27T08:37:19Z</time>
      </trkpt>
      <trkpt lat="42.7049" lon="1.40648">
        <ele>1570.93</ele>
        <time>2016-09-27T08:37:34Z</time>
      </trkpt>
      <trkpt lat="42.7049" lon="1.40648">
        <ele>1571.89</ele>
        <time>2016-09-27T08:37:51Z</time>
      </trkpt>
      <trkpt lat="42.7049" lon="1.40648">
        <ele>1571.89</ele>
        <time>2016-09-27T08:38:11Z</time>
      </trkpt>
      <trkpt lat="42.70489" lon="1.40648">
        <ele>1571.89</ele>
        <time>2016-09-27T08:38:15Z</time>
      </trkpt>
      <trkpt lat="42.70485" lon="1.40648">
        <ele>1573.33</ele>
        <time>2016-09-27T08:38:28Z</time>
      </trkpt>
      <trkpt lat="42.70481" lon="1.40651">
        <ele>1575.26</ele>
        <time>2016-09-27T08:38:38Z</time>
      </trkpt>
      <trkpt lat="42.70475" lon="1.4065">
        <ele>1577.18</ele>
        <time>2016-09-27T08:38:46Z</time>
      </trkpt>
      <trkpt lat="42.7047" lon="1.40649">
        <ele>1577.66</ele>
        <time>2016-09-27T08:38:58Z</time>
      </trkpt>
      <trkpt lat="42.70471" lon="1.40643">
        <ele>1579.58</ele>
        <time>2016-09-27T08:39:11Z</time>
      </trkpt>
      <trkpt lat="42.70468" lon="1.4064">
        <ele>1580.06</ele>
        <time>2016-09-27T08:39:20Z</time>
      </trkpt>
      <trkpt lat="42.70467" lon="1.40638">
        <ele>1581.51</ele>
        <time>2016-09-27T08:39:24Z</time>
      </trkpt>
      <trkpt lat="42.70466" lon="1.40637">
        <ele>1581.99</ele>
        <time>2016-09-27T08:39:28Z</time>
      </trkpt>
      <trkpt lat="42.70464" lon="1.40639">
        <ele>1583.91</ele>
        <time>2016-09-27T08:39:40Z</time>
      </trkpt>
      <trkpt lat="42.7046" lon="1.40646">
        <ele>1585.83</ele>
        <time>2016-09-27T08:39:52Z</time>
      </trkpt>
      <trkpt lat="42.70456" lon="1.40653">
        <ele>1589.68</ele>
        <time>2016-09-27T08:40:04Z</time>
      </trkpt>
      <trkpt lat="42.70454" lon="1.40657">
        <ele>1593.04</ele>
        <time>2016-09-27T08:40:12Z</time>
      </trkpt>
      <trkpt lat="42.70448" lon="1.40657">
        <ele>1592.56</ele>
        <time>2016-09-27T08:40:26Z</time>
      </trkpt>
      <trkpt lat="42.70444" lon="1.40656">
        <ele>1595.45</ele>
        <time>2016-09-27T08:40:39Z</time>
      </trkpt>
      <trkpt lat="42.70438" lon="1.40657">
        <ele>1597.85</ele>
        <time>2016-09-27T08:40:54Z</time>
      </trkpt>
      <trkpt lat="42.70433" lon="1.40656">
        <ele>1601.21</ele>
        <time>2016-09-27T08:41:05Z</time>
      </trkpt>
      <trkpt lat="42.70429" lon="1.40653">
        <ele>1605.54</ele>
        <time>2016-09-27T08:41:13Z</time>
      </trkpt>
      <trkpt lat="42.70425" lon="1.40646">
        <ele>1605.54</ele>
        <time>2016-09-27T08:41:23Z</time>
      </trkpt>
      <trkpt lat="42.70424" lon="1.40643">
        <ele>1606.02</ele>
        <time>2016-09-27T08:41:39Z</time>
      </trkpt>
      <trkpt lat="42.70422" lon="1.40637">
        <ele>1606.98</ele>
        <time>2016-09-27T08:41:58Z</time>
      </trkpt>
      <trkpt lat="42.70419" lon="1.40637">
        <ele>1609.38</ele>
        <time>2016-09-27T08:42:12Z</time>
      </trkpt>
      <trkpt lat="42.70414" lon="1.4064">
        <ele>1612.27</ele>
        <time>2016-09-27T08:42:25Z</time>
      </trkpt>
      <trkpt lat="42.70409" lon="1.40634">
        <ele>1613.71</ele>
        <time>2016-09-27T08:42:37Z</time>
      </trkpt>
      <trkpt lat="42.70404" lon="1.40628">
        <ele>1616.11</ele>
        <time>2016-09-27T08:42:50Z</time>
      </trkpt>
      <trkpt lat="42.70404" lon="1.40625">
        <ele>1617.56</ele>
        <time>2016-09-27T08:43:09Z</time>
      </trkpt>
      <trkpt lat="42.70401" lon="1.40623">
        <ele>1619</ele>
        <time>2016-09-27T08:43:31Z</time>
      </trkpt>
      <trkpt lat="42.70397" lon="1.40618">
        <ele>1621.4</ele>
        <time>2016-09-27T08:43:44Z</time>
      </trkpt>
      <trkpt lat="42.70396" lon="1.40617">
        <ele>1621.4</ele>
        <time>2016-09-27T08:43:46Z</time>
      </trkpt>
      <trkpt lat="42.70394" lon="1.4061">
        <ele>1623.32</ele>
        <time>2016-09-27T08:43:58Z</time>
      </trkpt>
      <trkpt lat="42.70389" lon="1.4061">
        <ele>1625.73</ele>
        <time>2016-09-27T08:44:10Z</time>
      </trkpt>
      <trkpt lat="42.70384" lon="1.40607">
        <ele>1627.65</ele>
        <time>2016-09-27T08:44:21Z</time>
      </trkpt>
      <trkpt lat="42.7038" lon="1.4061">
        <ele>1630.05</ele>
        <time>2016-09-27T08:44:31Z</time>
      </trkpt>
      <trkpt lat="42.70374" lon="1.40609">
        <ele>1633.42</ele>
        <time>2016-09-27T08:44:41Z</time>
      </trkpt>
      <trkpt lat="42.7037" lon="1.40602">
        <ele>1636.3</ele>
        <time>2016-09-27T08:44:49Z</time>
      </trkpt>
      <trkpt lat="42.70365" lon="1.40596">
        <ele>1636.3</ele>
        <time>2016-09-27T08:45:01Z</time>
      </trkpt>
      <trkpt lat="42.70356" lon="1.40592">
        <ele>1637.26</ele>
        <time>2016-09-27T08:45:15Z</time>
      </trkpt>
      <trkpt lat="42.70352" lon="1.40588">
        <ele>1638.7</ele>
        <time>2016-09-27T08:45:27Z</time>
      </trkpt>
      <trkpt lat="42.7035" lon="1.40587">
        <ele>1640.15</ele>
        <time>2016-09-27T08:45:43Z</time>
      </trkpt>
      <trkpt lat="42.70344" lon="1.40586">
        <ele>1641.59</ele>
        <time>2016-09-27T08:45:54Z</time>
      </trkpt>
      <trkpt lat="42.70338" lon="1.40586">
        <ele>1643.51</ele>
        <time>2016-09-27T08:46:06Z</time>
      </trkpt>
      <trkpt lat="42.70332" lon="1.40583">
        <ele>1645.91</ele>
        <time>2016-09-27T08:46:17Z</time>
      </trkpt>
      <trkpt lat="42.70325" lon="1.4058">
        <ele>1647.36</ele>
        <time>2016-09-27T08:46:29Z</time>
      </trkpt>
      <trkpt lat="42.70323" lon="1.4058">
        <ele>1648.32</ele>
        <time>2016-09-27T08:46:32Z</time>
      </trkpt>
      <trkpt lat="42.70319" lon="1.40581">
        <ele>1649.28</ele>
        <time>2016-09-27T08:46:43Z</time>
      </trkpt>
      <trkpt lat="42.70317" lon="1.40582">
        <ele>1650.72</ele>
        <time>2016-09-27T08:46:55Z</time>
      </trkpt>
      <trkpt lat="42.70312" lon="1.40581">
        <ele>1652.16</ele>
        <time>2016-09-27T08:47:12Z</time>
      </trkpt>
      <trkpt lat="42.70307" lon="1.40583">
        <ele>1654.09</ele>
        <time>2016-09-27T08:47:23Z</time>
      </trkpt>
      <trkpt lat="42.70298" lon="1.40581">
        <ele>1655.53</ele>
        <time>2016-09-27T08:47:35Z</time>
      </trkpt>
      <trkpt lat="42.70291" lon="1.40583">
        <ele>1657.93</ele>
        <time>2016-09-27T08:47:47Z</time>
      </trkpt>
      <trkpt lat="42.7028" lon="1.40581">
        <ele>1659.37</ele>
        <time>2016-09-27T08:48:00Z</time>
      </trkpt>
      <trkpt lat="42.70276" lon="1.40582">
        <ele>1659.85</ele>
        <time>2016-09-27T08:48:09Z</time>
      </trkpt>
      <trkpt lat="42.70272" lon="1.40587">
        <ele>1661.3</ele>
        <time>2016-09-27T08:48:17Z</time>
      </trkpt>
      <trkpt lat="42.70262" lon="1.4058">
        <ele>1662.26</ele>
        <time>2016-09-27T08:48:31Z</time>
      </trkpt>
      <trkpt lat="42.7026" lon="1.4058">
        <ele>1662.74</ele>
        <time>2016-09-27T08:48:34Z</time>
      </trkpt>
      <trkpt lat="42.70259" lon="1.40576">
        <ele>1662.74</ele>
        <time>2016-09-27T08:48:37Z</time>
      </trkpt>
      <trkpt lat="42.70256" lon="1.40575">
        <ele>1663.22</ele>
        <time>2016-09-27T08:48:40Z</time>
      </trkpt>
      <trkpt lat="42.70251" lon="1.4057">
        <ele>1665.14</ele>
        <time>2016-09-27T08:48:52Z</time>
      </trkpt>
      <trkpt lat="42.70246" lon="1.40566">
        <ele>1667.54</ele>
        <time>2016-09-27T08:49:04Z</time>
      </trkpt>
      <trkpt lat="42.7024" lon="1.40559">
        <ele>1669.95</ele>
        <time>2016-09-27T08:49:16Z</time>
      </trkpt>
      <trkpt lat="42.70232" lon="1.40556">
        <ele>1671.39</ele>
        <time>2016-09-27T08:49:28Z</time>
      </trkpt>
      <trkpt lat="42.70231" lon="1.40556">
        <ele>1671.39</ele>
        <time>2016-09-27T08:49:29Z</time>
      </trkpt>
      <trkpt lat="42.7022" lon="1.40555">
        <ele>1673.31</ele>
        <time>2016-09-27T08:49:43Z</time>
      </trkpt>
      <trkpt lat="42.7021" lon="1.40556">
        <ele>1674.75</ele>
        <time>2016-09-27T08:49:56Z</time>
      </trkpt>
      <trkpt lat="42.70199" lon="1.40553">
        <ele>1675.72</ele>
        <time>2016-09-27T08:50:09Z</time>
      </trkpt>
      <trkpt lat="42.70189" lon="1.40552">
        <ele>1677.64</ele>
        <time>2016-09-27T08:50:21Z</time>
      </trkpt>
      <trkpt lat="42.70183" lon="1.40549">
        <ele>1680.04</ele>
        <time>2016-09-27T08:50:34Z</time>
      </trkpt>
      <trkpt lat="42.70183" lon="1.40548">
        <ele>1681</ele>
        <time>2016-09-27T08:50:53Z</time>
      </trkpt>
      <trkpt lat="42.70181" lon="1.40548">
        <ele>1681.48</ele>
        <time>2016-09-27T08:51:17Z</time>
      </trkpt>
      <trkpt lat="42.7018" lon="1.40549">
        <ele>1681.48</ele>
        <time>2016-09-27T08:51:19Z</time>
      </trkpt>
      <trkpt lat="42.70174" lon="1.40547">
        <ele>1683.41</ele>
        <time>2016-09-27T08:51:30Z</time>
      </trkpt>
      <trkpt lat="42.7017" lon="1.40543">
        <ele>1685.33</ele>
        <time>2016-09-27T08:51:40Z</time>
      </trkpt>
      <trkpt lat="42.70166" lon="1.40534">
        <ele>1686.29</ele>
        <time>2016-09-27T08:51:49Z</time>
      </trkpt>
      <trkpt lat="42.7016" lon="1.40528">
        <ele>1688.69</ele>
        <time>2016-09-27T08:52:03Z</time>
      </trkpt>
      <trkpt lat="42.70157" lon="1.40531">
        <ele>1690.62</ele>
        <time>2016-09-27T08:52:13Z</time>
      </trkpt>
      <trkpt lat="42.70152" lon="1.40529">
        <ele>1692.54</ele>
        <time>2016-09-27T08:52:25Z</time>
      </trkpt>
      <trkpt lat="42.70149" lon="1.40527">
        <ele>1694.46</ele>
        <time>2016-09-27T08:52:36Z</time>
      </trkpt>
      <trkpt lat="42.70147" lon="1.40525">
        <ele>1695.9</ele>
        <time>2016-09-27T08:52:47Z</time>
      </trkpt>
      <trkpt lat="42.70143" lon="1.40524">
        <ele>1697.83</ele>
        <time>2016-09-27T08:53:02Z</time>
      </trkpt>
      <trkpt lat="42.70142" lon="1.40524">
        <ele>1699.75</ele>
        <time>2016-09-27T08:53:14Z</time>
      </trkpt>
      <trkpt lat="42.70139" lon="1.40518">
        <ele>1701.19</ele>
        <time>2016-09-27T08:53:28Z</time>
      </trkpt>
      <trkpt lat="42.70138" lon="1.40515">
        <ele>1702.63</ele>
        <time>2016-09-27T08:53:38Z</time>
      </trkpt>
      <trkpt lat="42.70138" lon="1.40515">
        <ele>1702.63</ele>
        <time>2016-09-27T08:53:41Z</time>
      </trkpt>
      <trkpt lat="42.70137" lon="1.40517">
        <ele>1703.59</ele>
        <time>2016-09-27T08:53:47Z</time>
      </trkpt>
      <trkpt lat="42.70134" lon="1.40512">
        <ele>1704.55</ele>
        <time>2016-09-27T08:54:00Z</time>
      </trkpt>
      <trkpt lat="42.70133" lon="1.4051">
        <ele>1706</ele>
        <time>2016-09-27T08:54:09Z</time>
      </trkpt>
      <trkpt lat="42.70129" lon="1.40503">
        <ele>1707.92</ele>
        <time>2016-09-27T08:54:20Z</time>
      </trkpt>
      <trkpt lat="42.70127" lon="1.40499">
        <ele>1710.8</ele>
        <time>2016-09-27T08:54:33Z</time>
      </trkpt>
      <trkpt lat="42.70124" lon="1.40497">
        <ele>1713.21</ele>
        <time>2016-09-27T08:54:55Z</time>
      </trkpt>
      <trkpt lat="42.70122" lon="1.40493">
        <ele>1713.21</ele>
        <time>2016-09-27T08:55:01Z</time>
      </trkpt>
      <trkpt lat="42.70116" lon="1.40486">
        <ele>1713.21</ele>
        <time>2016-09-27T08:55:12Z</time>
      </trkpt>
      <trkpt lat="42.70113" lon="1.40483">
        <ele>1715.13</ele>
        <time>2016-09-27T08:55:21Z</time>
      </trkpt>
      <trkpt lat="42.70112" lon="1.40479">
        <ele>1715.61</ele>
        <time>2016-09-27T08:55:26Z</time>
      </trkpt>
      <trkpt lat="42.70108" lon="1.40471">
        <ele>1716.09</ele>
        <time>2016-09-27T08:55:36Z</time>
      </trkpt>
      <trkpt lat="42.70105" lon="1.40467">
        <ele>1716.57</ele>
        <time>2016-09-27T08:55:46Z</time>
      </trkpt>
      <trkpt lat="42.70099" lon="1.40466">
        <ele>1718.01</ele>
        <time>2016-09-27T08:55:59Z</time>
      </trkpt>
      <trkpt lat="42.70095" lon="1.40465">
        <ele>1719.46</ele>
        <time>2016-09-27T08:56:08Z</time>
      </trkpt>
      <trkpt lat="42.70089" lon="1.40461">
        <ele>1721.38</ele>
        <time>2016-09-27T08:56:18Z</time>
      </trkpt>
      <trkpt lat="42.70085" lon="1.40453">
        <ele>1722.34</ele>
        <time>2016-09-27T08:56:29Z</time>
      </trkpt>
      <trkpt lat="42.70081" lon="1.40449">
        <ele>1722.82</ele>
        <time>2016-09-27T08:56:35Z</time>
      </trkpt>
      <trkpt lat="42.7008" lon="1.40442">
        <ele>1723.3</ele>
        <time>2016-09-27T08:56:44Z</time>
      </trkpt>
      <trkpt lat="42.70075" lon="1.40434">
        <ele>1725.22</ele>
        <time>2016-09-27T08:56:58Z</time>
      </trkpt>
      <trkpt lat="42.70075" lon="1.40433">
        <ele>1726.18</ele>
        <time>2016-09-27T08:57:12Z</time>
      </trkpt>
      <trkpt lat="42.70074" lon="1.40432">
        <ele>1727.15</ele>
        <time>2016-09-27T08:57:31Z</time>
      </trkpt>
      <trkpt lat="42.70073" lon="1.40433">
        <ele>1727.15</ele>
        <time>2016-09-27T08:57:58Z</time>
      </trkpt>
      <trkpt lat="42.7007" lon="1.40432">
        <ele>1727.63</ele>
        <time>2016-09-27T08:58:15Z</time>
      </trkpt>
      <trkpt lat="42.70068" lon="1.40433">
        <ele>1729.55</ele>
        <time>2016-09-27T08:58:25Z</time>
      </trkpt>
      <trkpt lat="42.70065" lon="1.40429">
        <ele>1732.91</ele>
        <time>2016-09-27T08:58:31Z</time>
      </trkpt>
      <trkpt lat="42.70061" lon="1.40424">
        <ele>1734.84</ele>
        <time>2016-09-27T08:58:43Z</time>
      </trkpt>
      <trkpt lat="42.70059" lon="1.40417">
        <ele>1735.8</ele>
        <time>2016-09-27T08:58:54Z</time>
      </trkpt>
      <trkpt lat="42.70052" lon="1.40407">
        <ele>1736.28</ele>
        <time>2016-09-27T08:59:06Z</time>
      </trkpt>
      <trkpt lat="42.70049" lon="1.40402">
        <ele>1737.72</ele>
        <time>2016-09-27T08:59:17Z</time>
      </trkpt>
      <trkpt lat="42.70045" lon="1.40398">
        <ele>1739.64</ele>
        <time>2016-09-27T08:59:28Z</time>
      </trkpt>
      <trkpt lat="42.70042" lon="1.40398">
        <ele>1741.57</ele>
        <time>2016-09-27T08:59:39Z</time>
      </trkpt>
      <trkpt lat="42.70042" lon="1.40398">
        <ele>1741.08</ele>
        <time>2016-09-27T08:59:40Z</time>
      </trkpt>
      <trkpt lat="42.70037" lon="1.40393">
        <ele>1743.97</ele>
        <time>2016-09-27T08:59:53Z</time>
      </trkpt>
      <trkpt lat="42.70031" lon="1.40384">
        <ele>1745.41</ele>
        <time>2016-09-27T09:00:05Z</time>
      </trkpt>
      <trkpt lat="42.70027" lon="1.40377">
        <ele>1747.33</ele>
        <time>2016-09-27T09:00:15Z</time>
      </trkpt>
      <trkpt lat="42.70023" lon="1.40372">
        <ele>1748.29</ele>
        <time>2016-09-27T09:00:25Z</time>
      </trkpt>
      <trkpt lat="42.70022" lon="1.40367">
        <ele>1749.26</ele>
        <time>2016-09-27T09:00:39Z</time>
      </trkpt>
      <trkpt lat="42.7002" lon="1.40362">
        <ele>1750.7</ele>
        <time>2016-09-27T09:00:53Z</time>
      </trkpt>
      <trkpt lat="42.70015" lon="1.40358">
        <ele>1751.18</ele>
        <time>2016-09-27T09:01:03Z</time>
      </trkpt>
      <trkpt lat="42.70013" lon="1.40352">
        <ele>1752.62</ele>
        <time>2016-09-27T09:01:12Z</time>
      </trkpt>
      <trkpt lat="42.70007" lon="1.40344">
        <ele>1754.06</ele>
        <time>2016-09-27T09:01:23Z</time>
      </trkpt>
      <trkpt lat="42.70006" lon="1.40342">
        <ele>1754.06</ele>
        <time>2016-09-27T09:01:26Z</time>
      </trkpt>
      <trkpt lat="42.69998" lon="1.40332">
        <ele>1755.99</ele>
        <time>2016-09-27T09:01:39Z</time>
      </trkpt>
      <trkpt lat="42.69995" lon="1.40327">
        <ele>1756.95</ele>
        <time>2016-09-27T09:01:46Z</time>
      </trkpt>
      <trkpt lat="42.69988" lon="1.40316">
        <ele>1758.39</ele>
        <time>2016-09-27T09:02:00Z</time>
      </trkpt>
      <trkpt lat="42.69987" lon="1.40315">
        <ele>1758.39</ele>
        <time>2016-09-27T09:02:02Z</time>
      </trkpt>
      <trkpt lat="42.69982" lon="1.4031">
        <ele>1760.31</ele>
        <time>2016-09-27T09:02:12Z</time>
      </trkpt>
      <trkpt lat="42.69977" lon="1.40304">
        <ele>1761.75</ele>
        <time>2016-09-27T09:02:24Z</time>
      </trkpt>
      <trkpt lat="42.69975" lon="1.40301">
        <ele>1764.16</ele>
        <time>2016-09-27T09:02:37Z</time>
      </trkpt>
      <trkpt lat="42.69972" lon="1.40294">
        <ele>1765.6</ele>
        <time>2016-09-27T09:02:48Z</time>
      </trkpt>
      <trkpt lat="42.69968" lon="1.40286">
        <ele>1767.04</ele>
        <time>2016-09-27T09:03:01Z</time>
      </trkpt>
      <trkpt lat="42.69964" lon="1.40277">
        <ele>1768</ele>
        <time>2016-09-27T09:03:10Z</time>
      </trkpt>
      <trkpt lat="42.6996" lon="1.40268">
        <ele>1769.92</ele>
        <time>2016-09-27T09:03:20Z</time>
      </trkpt>
      <trkpt lat="42.69958" lon="1.40258">
        <ele>1771.85</ele>
        <time>2016-09-27T09:03:31Z</time>
      </trkpt>
      <trkpt lat="42.69955" lon="1.40253">
        <ele>1775.21</ele>
        <time>2016-09-27T09:03:40Z</time>
      </trkpt>
      <trkpt lat="42.69953" lon="1.40246">
        <ele>1776.17</ele>
        <time>2016-09-27T09:03:52Z</time>
      </trkpt>
      <trkpt lat="42.69951" lon="1.40236">
        <ele>1777.61</ele>
        <time>2016-09-27T09:04:03Z</time>
      </trkpt>
      <trkpt lat="42.69951" lon="1.40232">
        <ele>1778.1</ele>
        <time>2016-09-27T09:04:07Z</time>
      </trkpt>
      <trkpt lat="42.69945" lon="1.40225">
        <ele>1779.06</ele>
        <time>2016-09-27T09:04:17Z</time>
      </trkpt>
      <trkpt lat="42.69941" lon="1.40218">
        <ele>1781.46</ele>
        <time>2016-09-27T09:04:30Z</time>
      </trkpt>
      <trkpt lat="42.69939" lon="1.40206">
        <ele>1782.42</ele>
        <time>2016-09-27T09:04:42Z</time>
      </trkpt>
      <trkpt lat="42.69933" lon="1.40201">
        <ele>1783.86</ele>
        <time>2016-09-27T09:04:56Z</time>
      </trkpt>
      <trkpt lat="42.69928" lon="1.40199">
        <ele>1785.79</ele>
        <time>2016-09-27T09:05:07Z</time>
      </trkpt>
      <trkpt lat="42.69924" lon="1.40196">
        <ele>1788.19</ele>
        <time>2016-09-27T09:05:18Z</time>
      </trkpt>
      <trkpt lat="42.69917" lon="1.40189">
        <ele>1789.63</ele>
        <time>2016-09-27T09:05:30Z</time>
      </trkpt>
      <trkpt lat="42.69914" lon="1.40189">
        <ele>1791.55</ele>
        <time>2016-09-27T09:05:44Z</time>
      </trkpt>
      <trkpt lat="42.69909" lon="1.40184">
        <ele>1792.52</ele>
        <time>2016-09-27T09:05:53Z</time>
      </trkpt>
      <trkpt lat="42.69901" lon="1.40182">
        <ele>1794.44</ele>
        <time>2016-09-27T09:06:05Z</time>
      </trkpt>
      <trkpt lat="42.69894" lon="1.40177">
        <ele>1795.88</ele>
        <time>2016-09-27T09:06:17Z</time>
      </trkpt>
      <trkpt lat="42.69883" lon="1.40173">
        <ele>1798.28</ele>
        <time>2016-09-27T09:06:31Z</time>
      </trkpt>
      <trkpt lat="42.69873" lon="1.4017">
        <ele>1799.24</ele>
        <time>2016-09-27T09:06:43Z</time>
      </trkpt>
      <trkpt lat="42.69867" lon="1.40167">
        <ele>1800.69</ele>
        <time>2016-09-27T09:06:51Z</time>
      </trkpt>
      <trkpt lat="42.6986" lon="1.40173">
        <ele>1801.65</ele>
        <time>2016-09-27T09:07:02Z</time>
      </trkpt>
      <trkpt lat="42.69854" lon="1.40175">
        <ele>1802.61</ele>
        <time>2016-09-27T09:07:13Z</time>
      </trkpt>
      <trkpt lat="42.69849" lon="1.40179">
        <ele>1805.01</ele>
        <time>2016-09-27T09:07:24Z</time>
      </trkpt>
      <trkpt lat="42.69846" lon="1.40185">
        <ele>1807.42</ele>
        <time>2016-09-27T09:07:35Z</time>
      </trkpt>
      <trkpt lat="42.69841" lon="1.40184">
        <ele>1808.86</ele>
        <time>2016-09-27T09:07:47Z</time>
      </trkpt>
      <trkpt lat="42.6984" lon="1.40177">
        <ele>1811.26</ele>
        <time>2016-09-27T09:07:59Z</time>
      </trkpt>
      <trkpt lat="42.69836" lon="1.40181">
        <ele>1812.7</ele>
        <time>2016-09-27T09:08:12Z</time>
      </trkpt>
      <trkpt lat="42.6983" lon="1.40182">
        <ele>1814.63</ele>
        <time>2016-09-27T09:08:24Z</time>
      </trkpt>
      <trkpt lat="42.69823" lon="1.4018">
        <ele>1816.07</ele>
        <time>2016-09-27T09:08:35Z</time>
      </trkpt>
      <trkpt lat="42.69816" lon="1.40173">
        <ele>1817.99</ele>
        <time>2016-09-27T09:08:48Z</time>
      </trkpt>
      <trkpt lat="42.69811" lon="1.40168">
        <ele>1819.43</ele>
        <time>2016-09-27T09:08:59Z</time>
      </trkpt>
      <trkpt lat="42.69807" lon="1.40157">
        <ele>1821.35</ele>
        <time>2016-09-27T09:09:11Z</time>
      </trkpt>
      <trkpt lat="42.69806" lon="1.40156">
        <ele>1821.35</ele>
        <time>2016-09-27T09:09:12Z</time>
      </trkpt>
      <trkpt lat="42.69805" lon="1.40154">
        <ele>1821.35</ele>
        <time>2016-09-27T09:09:14Z</time>
      </trkpt>
      <trkpt lat="42.69796" lon="1.40144">
        <ele>1822.8</ele>
        <time>2016-09-27T09:09:29Z</time>
      </trkpt>
      <trkpt lat="42.6979" lon="1.40136">
        <ele>1823.76</ele>
        <time>2016-09-27T09:09:43Z</time>
      </trkpt>
      <trkpt lat="42.69789" lon="1.40132">
        <ele>1824.72</ele>
        <time>2016-09-27T09:09:48Z</time>
      </trkpt>
      <trkpt lat="42.69785" lon="1.40121">
        <ele>1825.68</ele>
        <time>2016-09-27T09:10:00Z</time>
      </trkpt>
      <trkpt lat="42.6978" lon="1.40111">
        <ele>1826.16</ele>
        <time>2016-09-27T09:10:11Z</time>
      </trkpt>
      <trkpt lat="42.6978" lon="1.40107">
        <ele>1826.64</ele>
        <time>2016-09-27T09:10:14Z</time>
      </trkpt>
      <trkpt lat="42.69781" lon="1.40101">
        <ele>1827.12</ele>
        <time>2016-09-27T09:10:20Z</time>
      </trkpt>
      <trkpt lat="42.69783" lon="1.40089">
        <ele>1828.56</ele>
        <time>2016-09-27T09:10:31Z</time>
      </trkpt>
      <trkpt lat="42.6978" lon="1.40082">
        <ele>1829.53</ele>
        <time>2016-09-27T09:10:42Z</time>
      </trkpt>
      <trkpt lat="42.69778" lon="1.40078">
        <ele>1830.97</ele>
        <time>2016-09-27T09:10:47Z</time>
      </trkpt>
      <trkpt lat="42.69773" lon="1.40069">
        <ele>1832.41</ele>
        <time>2016-09-27T09:10:58Z</time>
      </trkpt>
      <trkpt lat="42.69767" lon="1.40065">
        <ele>1834.33</ele>
        <time>2016-09-27T09:11:08Z</time>
      </trkpt>
      <trkpt lat="42.69763" lon="1.40062">
        <ele>1836.26</ele>
        <time>2016-09-27T09:11:26Z</time>
      </trkpt>
      <trkpt lat="42.69754" lon="1.40056">
        <ele>1838.18</ele>
        <time>2016-09-27T09:11:40Z</time>
      </trkpt>
      <trkpt lat="42.69746" lon="1.40051">
        <ele>1839.62</ele>
        <time>2016-09-27T09:11:52Z</time>
      </trkpt>
      <trkpt lat="42.69741" lon="1.40046">
        <ele>1842.02</ele>
        <time>2016-09-27T09:12:03Z</time>
      </trkpt>
      <trkpt lat="42.69739" lon="1.40043">
        <ele>1842.5</ele>
        <time>2016-09-27T09:12:06Z</time>
      </trkpt>
      <trkpt lat="42.69733" lon="1.40036">
        <ele>1844.43</ele>
        <time>2016-09-27T09:12:20Z</time>
      </trkpt>
      <trkpt lat="42.69726" lon="1.4003">
        <ele>1846.83</ele>
        <time>2016-09-27T09:12:35Z</time>
      </trkpt>
      <trkpt lat="42.69723" lon="1.40028">
        <ele>1849.23</ele>
        <time>2016-09-27T09:12:46Z</time>
      </trkpt>
      <trkpt lat="42.69719" lon="1.40027">
        <ele>1850.68</ele>
        <time>2016-09-27T09:12:57Z</time>
      </trkpt>
      <trkpt lat="42.69711" lon="1.40023">
        <ele>1853.08</ele>
        <time>2016-09-27T09:13:10Z</time>
      </trkpt>
      <trkpt lat="42.69709" lon="1.40022">
        <ele>1855</ele>
        <time>2016-09-27T09:13:18Z</time>
      </trkpt>
      <trkpt lat="42.69703" lon="1.40019">
        <ele>1858.37</ele>
        <time>2016-09-27T09:13:25Z</time>
      </trkpt>
      <trkpt lat="42.69697" lon="1.40014">
        <ele>1859.33</ele>
        <time>2016-09-27T09:13:37Z</time>
      </trkpt>
      <trkpt lat="42.69691" lon="1.40008">
        <ele>1860.77</ele>
        <time>2016-09-27T09:13:49Z</time>
      </trkpt>
      <trkpt lat="42.69688" lon="1.40002">
        <ele>1861.73</ele>
        <time>2016-09-27T09:14:00Z</time>
      </trkpt>
      <trkpt lat="42.69687" lon="1.39999">
        <ele>1861.73</ele>
        <time>2016-09-27T09:14:03Z</time>
      </trkpt>
      <trkpt lat="42.69684" lon="1.39988">
        <ele>1863.17</ele>
        <time>2016-09-27T09:14:15Z</time>
      </trkpt>
      <trkpt lat="42.69681" lon="1.39987">
        <ele>1864.13</ele>
        <time>2016-09-27T09:14:26Z</time>
      </trkpt>
      <trkpt lat="42.69681" lon="1.39987">
        <ele>1864.13</ele>
        <time>2016-09-27T09:14:27Z</time>
      </trkpt>
      <trkpt lat="42.69683" lon="1.39989">
        <ele>1864.61</ele>
        <time>2016-09-27T09:14:29Z</time>
      </trkpt>
      <trkpt lat="42.69681" lon="1.39996">
        <ele>1865.09</ele>
        <time>2016-09-27T09:14:35Z</time>
      </trkpt>
      <trkpt lat="42.6968" lon="1.39999">
        <ele>1865.09</ele>
        <time>2016-09-27T09:14:39Z</time>
      </trkpt>
      <trkpt lat="42.69681" lon="1.40007">
        <ele>1865.09</ele>
        <time>2016-09-27T09:14:45Z</time>
      </trkpt>
      <trkpt lat="42.69682" lon="1.40009">
        <ele>1865.09</ele>
        <time>2016-09-27T09:14:47Z</time>
      </trkpt>
      <trkpt lat="42.69685" lon="1.40021">
        <ele>1865.58</ele>
        <time>2016-09-27T09:14:59Z</time>
      </trkpt>
      <trkpt lat="42.69689" lon="1.40031">
        <ele>1866.54</ele>
        <time>2016-09-27T09:15:12Z</time>
      </trkpt>
      <trkpt lat="42.6969" lon="1.40035">
        <ele>1867.02</ele>
        <time>2016-09-27T09:15:17Z</time>
      </trkpt>
      <trkpt lat="42.69691" lon="1.40039">
        <ele>1867.98</ele>
        <time>2016-09-27T09:15:20Z</time>
      </trkpt>
      <trkpt lat="42.69687" lon="1.40056">
        <ele>1868.46</ele>
        <time>2016-09-27T09:15:33Z</time>
      </trkpt>
      <trkpt lat="42.69688" lon="1.40069">
        <ele>1868.94</ele>
        <time>2016-09-27T09:15:44Z</time>
      </trkpt>
      <trkpt lat="42.69689" lon="1.40071">
        <ele>1868.94</ele>
        <time>2016-09-27T09:15:46Z</time>
      </trkpt>
      <trkpt lat="42.69695" lon="1.40087">
        <ele>1869.9</ele>
        <time>2016-09-27T09:16:00Z</time>
      </trkpt>
      <trkpt lat="42.69696" lon="1.40097">
        <ele>1871.34</ele>
        <time>2016-09-27T09:16:10Z</time>
      </trkpt>
      <trkpt lat="42.69696" lon="1.40098">
        <ele>1871.34</ele>
        <time>2016-09-27T09:16:11Z</time>
      </trkpt>
      <trkpt lat="42.69696" lon="1.401">
        <ele>1871.82</ele>
        <time>2016-09-27T09:16:13Z</time>
      </trkpt>
      <trkpt lat="42.69697" lon="1.40103">
        <ele>1871.82</ele>
        <time>2016-09-27T09:16:15Z</time>
      </trkpt>
      <trkpt lat="42.69699" lon="1.40112">
        <ele>1872.3</ele>
        <time>2016-09-27T09:16:22Z</time>
      </trkpt>
      <trkpt lat="42.69701" lon="1.40115">
        <ele>1872.79</ele>
        <time>2016-09-27T09:16:25Z</time>
      </trkpt>
      <trkpt lat="42.69703" lon="1.40124">
        <ele>1872.79</ele>
        <time>2016-09-27T09:16:31Z</time>
      </trkpt>
      <trkpt lat="42.69702" lon="1.40132">
        <ele>1872.79</ele>
        <time>2016-09-27T09:16:37Z</time>
      </trkpt>
      <trkpt lat="42.69704" lon="1.40135">
        <ele>1872.79</ele>
        <time>2016-09-27T09:16:40Z</time>
      </trkpt>
      <trkpt lat="42.69705" lon="1.40144">
        <ele>1872.79</ele>
        <time>2016-09-27T09:16:46Z</time>
      </trkpt>
      <trkpt lat="42.69705" lon="1.40147">
        <ele>1872.79</ele>
        <time>2016-09-27T09:16:49Z</time>
      </trkpt>
      <trkpt lat="42.69704" lon="1.40155">
        <ele>1872.79</ele>
        <time>2016-09-27T09:16:55Z</time>
      </trkpt>
      <trkpt lat="42.69702" lon="1.40167">
        <ele>1872.79</ele>
        <time>2016-09-27T09:17:04Z</time>
      </trkpt>
      <trkpt lat="42.69701" lon="1.40178">
        <ele>1873.27</ele>
        <time>2016-09-27T09:17:13Z</time>
      </trkpt>
      <trkpt lat="42.69701" lon="1.40188">
        <ele>1873.75</ele>
        <time>2016-09-27T09:17:21Z</time>
      </trkpt>
      <trkpt lat="42.69701" lon="1.40191">
        <ele>1873.75</ele>
        <time>2016-09-27T09:17:23Z</time>
      </trkpt>
      <trkpt lat="42.69699" lon="1.40205">
        <ele>1875.19</ele>
        <time>2016-09-27T09:17:35Z</time>
      </trkpt>
      <trkpt lat="42.69699" lon="1.40215">
        <ele>1876.15</ele>
        <time>2016-09-27T09:17:46Z</time>
      </trkpt>
      <trkpt lat="42.69699" lon="1.40219">
        <ele>1877.11</ele>
        <time>2016-09-27T09:17:49Z</time>
      </trkpt>
      <trkpt lat="42.69695" lon="1.40233">
        <ele>1878.55</ele>
        <time>2016-09-27T09:18:03Z</time>
      </trkpt>
      <trkpt lat="42.69695" lon="1.40235">
        <ele>1879.03</ele>
        <time>2016-09-27T09:18:05Z</time>
      </trkpt>
      <trkpt lat="42.69695" lon="1.40243">
        <ele>1879.51</ele>
        <time>2016-09-27T09:18:11Z</time>
      </trkpt>
      <trkpt lat="42.69694" lon="1.40248">
        <ele>1880</ele>
        <time>2016-09-27T09:18:16Z</time>
      </trkpt>
      <trkpt lat="42.69693" lon="1.40256">
        <ele>1880.96</ele>
        <time>2016-09-27T09:18:22Z</time>
      </trkpt>
      <trkpt lat="42.69693" lon="1.40259">
        <ele>1880.96</ele>
        <time>2016-09-27T09:18:25Z</time>
      </trkpt>
      <trkpt lat="42.69685" lon="1.40271">
        <ele>1882.4</ele>
        <time>2016-09-27T09:18:38Z</time>
      </trkpt>
      <trkpt lat="42.69685" lon="1.40272">
        <ele>1882.88</ele>
        <time>2016-09-27T09:18:40Z</time>
      </trkpt>
      <trkpt lat="42.6968" lon="1.40284">
        <ele>1884.32</ele>
        <time>2016-09-27T09:18:53Z</time>
      </trkpt>
      <trkpt lat="42.6968" lon="1.4029">
        <ele>1884.8</ele>
        <time>2016-09-27T09:18:59Z</time>
      </trkpt>
      <trkpt lat="42.69679" lon="1.403">
        <ele>1885.76</ele>
        <time>2016-09-27T09:19:07Z</time>
      </trkpt>
      <trkpt lat="42.69677" lon="1.40305">
        <ele>1885.76</ele>
        <time>2016-09-27T09:19:11Z</time>
      </trkpt>
      <trkpt lat="42.69678" lon="1.40314">
        <ele>1886.72</ele>
        <time>2016-09-27T09:19:22Z</time>
      </trkpt>
      <trkpt lat="42.69678" lon="1.40315">
        <ele>1887.21</ele>
        <time>2016-09-27T09:19:40Z</time>
      </trkpt>
      <trkpt lat="42.69678" lon="1.40314">
        <ele>1887.21</ele>
        <time>2016-09-27T09:20:04Z</time>
      </trkpt>
      <trkpt lat="42.69677" lon="1.40314">
        <ele>1887.21</ele>
        <time>2016-09-27T09:20:16Z</time>
      </trkpt>
      <trkpt lat="42.69676" lon="1.40314">
        <ele>1887.69</ele>
        <time>2016-09-27T09:20:31Z</time>
      </trkpt>
      <trkpt lat="42.69674" lon="1.40314">
        <ele>1888.17</ele>
        <time>2016-09-27T09:20:54Z</time>
      </trkpt>
      <trkpt lat="42.69673" lon="1.40313">
        <ele>1888.17</ele>
        <time>2016-09-27T09:21:01Z</time>
      </trkpt>
      <trkpt lat="42.69669" lon="1.40307">
        <ele>1888.65</ele>
        <time>2016-09-27T09:21:09Z</time>
      </trkpt>
      <trkpt lat="42.69663" lon="1.40292">
        <ele>1889.13</ele>
        <time>2016-09-27T09:21:24Z</time>
      </trkpt>
      <trkpt lat="42.69658" lon="1.40279">
        <ele>1889.13</ele>
        <time>2016-09-27T09:21:36Z</time>
      </trkpt>
      <trkpt lat="42.69658" lon="1.40278">
        <ele>1889.13</ele>
        <time>2016-09-27T09:21:37Z</time>
      </trkpt>
      <trkpt lat="42.69652" lon="1.40271">
        <ele>1889.13</ele>
        <time>2016-09-27T09:21:44Z</time>
      </trkpt>
      <trkpt lat="42.69649" lon="1.40265">
        <ele>1889.13</ele>
        <time>2016-09-27T09:21:49Z</time>
      </trkpt>
      <trkpt lat="42.69646" lon="1.40251">
        <ele>1890.09</ele>
        <time>2016-09-27T09:22:01Z</time>
      </trkpt>
      <trkpt lat="42.69645" lon="1.4024">
        <ele>1891.53</ele>
        <time>2016-09-27T09:22:12Z</time>
      </trkpt>
      <trkpt lat="42.69643" lon="1.40238">
        <ele>1891.53</ele>
        <time>2016-09-27T09:22:14Z</time>
      </trkpt>
      <trkpt lat="42.69639" lon="1.40235">
        <ele>1892.01</ele>
        <time>2016-09-27T09:22:19Z</time>
      </trkpt>
      <trkpt lat="42.69635" lon="1.40233">
        <ele>1892.49</ele>
        <time>2016-09-27T09:22:23Z</time>
      </trkpt>
      <trkpt lat="42.69626" lon="1.40223">
        <ele>1893.45</ele>
        <time>2016-09-27T09:22:36Z</time>
      </trkpt>
      <trkpt lat="42.69623" lon="1.40223">
        <ele>1893.93</ele>
        <time>2016-09-27T09:22:39Z</time>
      </trkpt>
      <trkpt lat="42.69619" lon="1.4022">
        <ele>1893.93</ele>
        <time>2016-09-27T09:22:43Z</time>
      </trkpt>
      <trkpt lat="42.69612" lon="1.40219">
        <ele>1894.42</ele>
        <time>2016-09-27T09:22:52Z</time>
      </trkpt>
      <trkpt lat="42.69606" lon="1.40212">
        <ele>1895.86</ele>
        <time>2016-09-27T09:23:05Z</time>
      </trkpt>
      <trkpt lat="42.69602" lon="1.40215">
        <ele>1897.78</ele>
        <time>2016-09-27T09:23:15Z</time>
      </trkpt>
      <trkpt lat="42.69601" lon="1.40215">
        <ele>1898.26</ele>
        <time>2016-09-27T09:23:17Z</time>
      </trkpt>
      <trkpt lat="42.69594" lon="1.40214">
        <ele>1900.18</ele>
        <time>2016-09-27T09:23:28Z</time>
      </trkpt>
      <trkpt lat="42.69592" lon="1.40213">
        <ele>1900.66</ele>
        <time>2016-09-27T09:23:30Z</time>
      </trkpt>
      <trkpt lat="42.69584" lon="1.40206">
        <ele>1902.11</ele>
        <time>2016-09-27T09:23:42Z</time>
      </trkpt>
      <trkpt lat="42.69579" lon="1.402">
        <ele>1902.11</ele>
        <time>2016-09-27T09:23:50Z</time>
      </trkpt>
      <trkpt lat="42.6957" lon="1.4019">
        <ele>1903.55</ele>
        <time>2016-09-27T09:24:04Z</time>
      </trkpt>
      <trkpt lat="42.69563" lon="1.40182">
        <ele>1904.03</ele>
        <time>2016-09-27T09:24:14Z</time>
      </trkpt>
      <trkpt lat="42.69554" lon="1.40178">
        <ele>1905.47</ele>
        <time>2016-09-27T09:24:27Z</time>
      </trkpt>
      <trkpt lat="42.6955" lon="1.4017">
        <ele>1906.43</ele>
        <time>2016-09-27T09:24:36Z</time>
      </trkpt>
      <trkpt lat="42.69546" lon="1.40163">
        <ele>1906.91</ele>
        <time>2016-09-27T09:24:44Z</time>
      </trkpt>
      <trkpt lat="42.69544" lon="1.40161">
        <ele>1906.91</ele>
        <time>2016-09-27T09:24:46Z</time>
      </trkpt>
      <trkpt lat="42.6954" lon="1.40156">
        <ele>1906.91</ele>
        <time>2016-09-27T09:24:53Z</time>
      </trkpt>
      <trkpt lat="42.69538" lon="1.40156">
        <ele>1907.39</ele>
        <time>2016-09-27T09:24:56Z</time>
      </trkpt>
      <trkpt lat="42.69532" lon="1.40151">
        <ele>1908.83</ele>
        <time>2016-09-27T09:25:06Z</time>
      </trkpt>
      <trkpt lat="42.6953" lon="1.40144">
        <ele>1910.28</ele>
        <time>2016-09-27T09:25:17Z</time>
      </trkpt>
      <trkpt lat="42.69529" lon="1.40133">
        <ele>1912.2</ele>
        <time>2016-09-27T09:25:29Z</time>
      </trkpt>
      <trkpt lat="42.69525" lon="1.40127">
        <ele>1914.6</ele>
        <time>2016-09-27T09:25:40Z</time>
      </trkpt>
      <trkpt lat="42.69522" lon="1.40117">
        <ele>1916.53</ele>
        <time>2016-09-27T09:25:53Z</time>
      </trkpt>
      <trkpt lat="42.69522" lon="1.40116">
        <ele>1917.97</ele>
        <time>2016-09-27T09:26:15Z</time>
      </trkpt>
      <trkpt lat="42.6952" lon="1.40116">
        <ele>1918.45</ele>
        <time>2016-09-27T09:26:26Z</time>
      </trkpt>
      <trkpt lat="42.69518" lon="1.40114">
        <ele>1919.41</ele>
        <time>2016-09-27T09:26:32Z</time>
      </trkpt>
      <trkpt lat="42.69515" lon="1.40105">
        <ele>1920.85</ele>
        <time>2016-09-27T09:26:44Z</time>
      </trkpt>
      <trkpt lat="42.6951" lon="1.40095">
        <ele>1922.29</ele>
        <time>2016-09-27T09:26:57Z</time>
      </trkpt>
      <trkpt lat="42.69507" lon="1.40088">
        <ele>1924.7</ele>
        <time>2016-09-27T09:27:09Z</time>
      </trkpt>
      <trkpt lat="42.69505" lon="1.4008">
        <ele>1926.62</ele>
        <time>2016-09-27T09:27:22Z</time>
      </trkpt>
      <trkpt lat="42.69504" lon="1.40072">
        <ele>1928.54</ele>
        <time>2016-09-27T09:27:32Z</time>
      </trkpt>
      <trkpt lat="42.69503" lon="1.40068">
        <ele>1930.46</ele>
        <time>2016-09-27T09:27:47Z</time>
      </trkpt>
      <trkpt lat="42.69503" lon="1.40066">
        <ele>1930.46</ele>
        <time>2016-09-27T09:27:49Z</time>
      </trkpt>
      <trkpt lat="42.69504" lon="1.40056">
        <ele>1931.43</ele>
        <time>2016-09-27T09:27:59Z</time>
      </trkpt>
      <trkpt lat="42.69501" lon="1.40048">
        <ele>1933.83</ele>
        <time>2016-09-27T09:28:11Z</time>
      </trkpt>
      <trkpt lat="42.695" lon="1.40039">
        <ele>1935.75</ele>
        <time>2016-09-27T09:28:22Z</time>
      </trkpt>
      <trkpt lat="42.69499" lon="1.40039">
        <ele>1935.75</ele>
        <time>2016-09-27T09:28:25Z</time>
      </trkpt>
      <trkpt lat="42.69498" lon="1.40031">
        <ele>1938.16</ele>
        <time>2016-09-27T09:28:36Z</time>
      </trkpt>
      <trkpt lat="42.69497" lon="1.4003">
        <ele>1939.12</ele>
        <time>2016-09-27T09:28:55Z</time>
      </trkpt>
      <trkpt lat="42.69497" lon="1.4003">
        <ele>1939.6</ele>
        <time>2016-09-27T09:29:02Z</time>
      </trkpt>
      <trkpt lat="42.69494" lon="1.40017">
        <ele>1940.08</ele>
        <time>2016-09-27T09:29:15Z</time>
      </trkpt>
      <trkpt lat="42.69493" lon="1.4001">
        <ele>1941.04</ele>
        <time>2016-09-27T09:29:24Z</time>
      </trkpt>
      <trkpt lat="42.69491" lon="1.40003">
        <ele>1942</ele>
        <time>2016-09-27T09:29:34Z</time>
      </trkpt>
      <trkpt lat="42.69491" lon="1.39996">
        <ele>1943.92</ele>
        <time>2016-09-27T09:29:44Z</time>
      </trkpt>
      <trkpt lat="42.69488" lon="1.3999">
        <ele>1946.33</ele>
        <time>2016-09-27T09:29:55Z</time>
      </trkpt>
      <trkpt lat="42.69488" lon="1.39984">
        <ele>1947.77</ele>
        <time>2016-09-27T09:30:05Z</time>
      </trkpt>
      <trkpt lat="42.6949" lon="1.39981">
        <ele>1951.13</ele>
        <time>2016-09-27T09:30:14Z</time>
      </trkpt>
      <trkpt lat="42.69493" lon="1.39971">
        <ele>1952.09</ele>
        <time>2016-09-27T09:30:28Z</time>
      </trkpt>
      <trkpt lat="42.6949" lon="1.39964">
        <ele>1954.02</ele>
        <time>2016-09-27T09:30:42Z</time>
      </trkpt>
      <trkpt lat="42.69491" lon="1.39961">
        <ele>1955.46</ele>
        <time>2016-09-27T09:30:49Z</time>
      </trkpt>
      <trkpt lat="42.69489" lon="1.39957">
        <ele>1956.42</ele>
        <time>2016-09-27T09:30:58Z</time>
      </trkpt>
      <trkpt lat="42.6949" lon="1.39957">
        <ele>1957.86</ele>
        <time>2016-09-27T09:31:10Z</time>
      </trkpt>
      <trkpt lat="42.69492" lon="1.39957">
        <ele>1958.82</ele>
        <time>2016-09-27T09:31:23Z</time>
      </trkpt>
      <trkpt lat="42.69492" lon="1.39957">
        <ele>1958.82</ele>
        <time>2016-09-27T09:31:32Z</time>
      </trkpt>
      <trkpt lat="42.69492" lon="1.39953">
        <ele>1959.3</ele>
        <time>2016-09-27T09:31:39Z</time>
      </trkpt>
      <trkpt lat="42.69492" lon="1.39946">
        <ele>1960.27</ele>
        <time>2016-09-27T09:31:50Z</time>
      </trkpt>
      <trkpt lat="42.6949" lon="1.39944">
        <ele>1962.19</ele>
        <time>2016-09-27T09:32:01Z</time>
      </trkpt>
      <trkpt lat="42.69487" lon="1.39939">
        <ele>1964.59</ele>
        <time>2016-09-27T09:32:11Z</time>
      </trkpt>
      <trkpt lat="42.69487" lon="1.39938">
        <ele>1964.59</ele>
        <time>2016-09-27T09:32:13Z</time>
      </trkpt>
      <trkpt lat="42.69486" lon="1.39933">
        <ele>1965.07</ele>
        <time>2016-09-27T09:32:17Z</time>
      </trkpt>
      <trkpt lat="42.69483" lon="1.39923">
        <ele>1966.99</ele>
        <time>2016-09-27T09:32:28Z</time>
      </trkpt>
      <trkpt lat="42.69483" lon="1.39922">
        <ele>1968.44</ele>
        <time>2016-09-27T09:32:42Z</time>
      </trkpt>
      <trkpt lat="42.69483" lon="1.39922">
        <ele>1968.92</ele>
        <time>2016-09-27T09:32:57Z</time>
      </trkpt>
      <trkpt lat="42.69484" lon="1.39922">
        <ele>1969.4</ele>
        <time>2016-09-27T09:33:06Z</time>
      </trkpt>
      <trkpt lat="42.69483" lon="1.39912">
        <ele>1969.4</ele>
        <time>2016-09-27T09:33:17Z</time>
      </trkpt>
      <trkpt lat="42.69484" lon="1.39903">
        <ele>1971.32</ele>
        <time>2016-09-27T09:33:28Z</time>
      </trkpt>
      <trkpt lat="42.69484" lon="1.39902">
        <ele>1972.28</ele>
        <time>2016-09-27T09:33:36Z</time>
      </trkpt>
      <trkpt lat="42.69485" lon="1.39899">
        <ele>1973.72</ele>
        <time>2016-09-27T09:33:47Z</time>
      </trkpt>
      <trkpt lat="42.69484" lon="1.39898">
        <ele>1975.17</ele>
        <time>2016-09-27T09:34:08Z</time>
      </trkpt>
      <trkpt lat="42.69483" lon="1.39897">
        <ele>1975.17</ele>
        <time>2016-09-27T09:34:26Z</time>
      </trkpt>
      <trkpt lat="42.69482" lon="1.39888">
        <ele>1976.61</ele>
        <time>2016-09-27T09:34:38Z</time>
      </trkpt>
      <trkpt lat="42.69481" lon="1.39882">
        <ele>1978.53</ele>
        <time>2016-09-27T09:34:50Z</time>
      </trkpt>
      <trkpt lat="42.69479" lon="1.39879">
        <ele>1979.97</ele>
        <time>2016-09-27T09:35:06Z</time>
      </trkpt>
      <trkpt lat="42.69481" lon="1.39869">
        <ele>1980.93</ele>
        <time>2016-09-27T09:35:17Z</time>
      </trkpt>
      <trkpt lat="42.69482" lon="1.39864">
        <ele>1981.41</ele>
        <time>2016-09-27T09:35:24Z</time>
      </trkpt>
      <trkpt lat="42.69485" lon="1.39854">
        <ele>1982.86</ele>
        <time>2016-09-27T09:35:36Z</time>
      </trkpt>
      <trkpt lat="42.69485" lon="1.39845">
        <ele>1983.82</ele>
        <time>2016-09-27T09:35:46Z</time>
      </trkpt>
      <trkpt lat="42.69486" lon="1.39835">
        <ele>1985.74</ele>
        <time>2016-09-27T09:35:58Z</time>
      </trkpt>
      <trkpt lat="42.69488" lon="1.39833">
        <ele>1986.22</ele>
        <time>2016-09-27T09:36:05Z</time>
      </trkpt>
      <trkpt lat="42.69488" lon="1.3983">
        <ele>1987.66</ele>
        <time>2016-09-27T09:36:17Z</time>
      </trkpt>
      <trkpt lat="42.69489" lon="1.39829">
        <ele>1988.62</ele>
        <time>2016-09-27T09:36:36Z</time>
      </trkpt>
      <trkpt lat="42.69489" lon="1.39825">
        <ele>1989.1</ele>
        <time>2016-09-27T09:36:52Z</time>
      </trkpt>
      <trkpt lat="42.69489" lon="1.39821">
        <ele>1989.59</ele>
        <time>2016-09-27T09:37:00Z</time>
      </trkpt>
      <trkpt lat="42.69487" lon="1.39815">
        <ele>1990.55</ele>
        <time>2016-09-27T09:37:10Z</time>
      </trkpt>
      <trkpt lat="42.69489" lon="1.39811">
        <ele>1991.99</ele>
        <time>2016-09-27T09:37:18Z</time>
      </trkpt>
      <trkpt lat="42.6949" lon="1.39805">
        <ele>1993.43</ele>
        <time>2016-09-27T09:37:30Z</time>
      </trkpt>
      <trkpt lat="42.69493" lon="1.39799">
        <ele>1995.35</ele>
        <time>2016-09-27T09:37:41Z</time>
      </trkpt>
      <trkpt lat="42.69494" lon="1.39795">
        <ele>1996.8</ele>
        <time>2016-09-27T09:37:51Z</time>
      </trkpt>
      <trkpt lat="42.69494" lon="1.39788">
        <ele>1998.72</ele>
        <time>2016-09-27T09:38:03Z</time>
      </trkpt>
      <trkpt lat="42.69494" lon="1.39782">
        <ele>2000.64</ele>
        <time>2016-09-27T09:38:15Z</time>
      </trkpt>
      <trkpt lat="42.69496" lon="1.39779">
        <ele>2001.12</ele>
        <time>2016-09-27T09:38:19Z</time>
      </trkpt>
      <trkpt lat="42.69501" lon="1.39775">
        <ele>2003.04</ele>
        <time>2016-09-27T09:38:31Z</time>
      </trkpt>
      <trkpt lat="42.69502" lon="1.39774">
        <ele>2003.52</ele>
        <time>2016-09-27T09:38:45Z</time>
      </trkpt>
      <trkpt lat="42.69504" lon="1.39773">
        <ele>2003.52</ele>
        <time>2016-09-27T09:39:02Z</time>
      </trkpt>
      <trkpt lat="42.69505" lon="1.39772">
        <ele>2003.52</ele>
        <time>2016-09-27T09:39:03Z</time>
      </trkpt>
      <trkpt lat="42.69509" lon="1.39765">
        <ele>2003.52</ele>
        <time>2016-09-27T09:39:14Z</time>
      </trkpt>
      <trkpt lat="42.69509" lon="1.39764">
        <ele>2003.52</ele>
        <time>2016-09-27T09:39:15Z</time>
      </trkpt>
      <trkpt lat="42.6951" lon="1.39761">
        <ele>2003.52</ele>
        <time>2016-09-27T09:39:18Z</time>
      </trkpt>
      <trkpt lat="42.69513" lon="1.39755">
        <ele>2004.49</ele>
        <time>2016-09-27T09:39:28Z</time>
      </trkpt>
      <trkpt lat="42.69515" lon="1.39746">
        <ele>2005.45</ele>
        <time>2016-09-27T09:39:38Z</time>
      </trkpt>
      <trkpt lat="42.69518" lon="1.39737">
        <ele>2006.41</ele>
        <time>2016-09-27T09:39:47Z</time>
      </trkpt>
      <trkpt lat="42.69518" lon="1.39731">
        <ele>2006.89</ele>
        <time>2016-09-27T09:39:58Z</time>
      </trkpt>
      <trkpt lat="42.69514" lon="1.39733">
        <ele>2007.85</ele>
        <time>2016-09-27T09:40:12Z</time>
      </trkpt>
      <trkpt lat="42.69513" lon="1.39725">
        <ele>2009.77</ele>
        <time>2016-09-27T09:40:23Z</time>
      </trkpt>
      <trkpt lat="42.69513" lon="1.39724">
        <ele>2009.77</ele>
        <time>2016-09-27T09:40:25Z</time>
      </trkpt>
      <trkpt lat="42.69511" lon="1.39718">
        <ele>2012.18</ele>
        <time>2016-09-27T09:40:36Z</time>
      </trkpt>
      <trkpt lat="42.69511" lon="1.39713">
        <ele>2013.14</ele>
        <time>2016-09-27T09:40:47Z</time>
      </trkpt>
      <trkpt lat="42.6951" lon="1.39707">
        <ele>2015.54</ele>
        <time>2016-09-27T09:40:59Z</time>
      </trkpt>
      <trkpt lat="42.6951" lon="1.39706">
        <ele>2016.98</ele>
        <time>2016-09-27T09:41:15Z</time>
      </trkpt>
      <trkpt lat="42.6951" lon="1.39706">
        <ele>2016.98</ele>
        <time>2016-09-27T09:41:40Z</time>
      </trkpt>
      <trkpt lat="42.6951" lon="1.39701">
        <ele>2017.94</ele>
        <time>2016-09-27T09:41:50Z</time>
      </trkpt>
      <trkpt lat="42.69508" lon="1.39693">
        <ele>2019.87</ele>
        <time>2016-09-27T09:42:05Z</time>
      </trkpt>
      <trkpt lat="42.69507" lon="1.39687">
        <ele>2023.71</ele>
        <time>2016-09-27T09:42:17Z</time>
      </trkpt>
      <trkpt lat="42.69506" lon="1.39685">
        <ele>2026.12</ele>
        <time>2016-09-27T09:42:21Z</time>
      </trkpt>
      <trkpt lat="42.69506" lon="1.39682">
        <ele>2028.52</ele>
        <time>2016-09-27T09:42:34Z</time>
      </trkpt>
      <trkpt lat="42.69505" lon="1.39678">
        <ele>2028.52</ele>
        <time>2016-09-27T09:42:46Z</time>
      </trkpt>
      <trkpt lat="42.69504" lon="1.39673">
        <ele>2029.48</ele>
        <time>2016-09-27T09:42:55Z</time>
      </trkpt>
      <trkpt lat="42.69504" lon="1.3967">
        <ele>2030.44</ele>
        <time>2016-09-27T09:43:09Z</time>
      </trkpt>
      <trkpt lat="42.69502" lon="1.3967">
        <ele>2032.36</ele>
        <time>2016-09-27T09:43:21Z</time>
      </trkpt>
      <trkpt lat="42.69503" lon="1.39665">
        <ele>2033.81</ele>
        <time>2016-09-27T09:43:32Z</time>
      </trkpt>
      <trkpt lat="42.69502" lon="1.39659">
        <ele>2035.25</ele>
        <time>2016-09-27T09:43:43Z</time>
      </trkpt>
      <trkpt lat="42.69502" lon="1.39652">
        <ele>2036.69</ele>
        <time>2016-09-27T09:43:54Z</time>
      </trkpt>
      <trkpt lat="42.69502" lon="1.39653">
        <ele>2038.13</ele>
        <time>2016-09-27T09:44:13Z</time>
      </trkpt>
      <trkpt lat="42.69503" lon="1.39647">
        <ele>2038.13</ele>
        <time>2016-09-27T09:44:29Z</time>
      </trkpt>
      <trkpt lat="42.69502" lon="1.39639">
        <ele>2039.09</ele>
        <time>2016-09-27T09:44:39Z</time>
      </trkpt>
      <trkpt lat="42.69498" lon="1.39635">
        <ele>2041.02</ele>
        <time>2016-09-27T09:44:50Z</time>
      </trkpt>
      <trkpt lat="42.69496" lon="1.39629">
        <ele>2042.94</ele>
        <time>2016-09-27T09:45:00Z</time>
      </trkpt>
      <trkpt lat="42.69494" lon="1.39628">
        <ele>2045.34</ele>
        <time>2016-09-27T09:45:11Z</time>
      </trkpt>
      <trkpt lat="42.69491" lon="1.39622">
        <ele>2047.75</ele>
        <time>2016-09-27T09:45:25Z</time>
      </trkpt>
      <trkpt lat="42.69486" lon="1.39617">
        <ele>2049.19</ele>
        <time>2016-09-27T09:45:34Z</time>
      </trkpt>
      <trkpt lat="42.69484" lon="1.39613">
        <ele>2050.15</ele>
        <time>2016-09-27T09:45:46Z</time>
      </trkpt>
      <trkpt lat="42.69481" lon="1.39612">
        <ele>2052.07</ele>
        <time>2016-09-27T09:45:56Z</time>
      </trkpt>
      <trkpt lat="42.69476" lon="1.39612">
        <ele>2053.03</ele>
        <time>2016-09-27T09:46:07Z</time>
      </trkpt>
      <trkpt lat="42.69474" lon="1.39613">
        <ele>2055.44</ele>
        <time>2016-09-27T09:46:20Z</time>
      </trkpt>
      <trkpt lat="42.69472" lon="1.39611">
        <ele>2056.4</ele>
        <time>2016-09-27T09:46:38Z</time>
      </trkpt>
      <trkpt lat="42.69471" lon="1.39607">
        <ele>2056.88</ele>
        <time>2016-09-27T09:46:45Z</time>
      </trkpt>
      <trkpt lat="42.69468" lon="1.39603">
        <ele>2058.32</ele>
        <time>2016-09-27T09:46:54Z</time>
      </trkpt>
      <trkpt lat="42.69463" lon="1.39596">
        <ele>2060.24</ele>
        <time>2016-09-27T09:47:05Z</time>
      </trkpt>
      <trkpt lat="42.69459" lon="1.39598">
        <ele>2062.17</ele>
        <time>2016-09-27T09:47:18Z</time>
      </trkpt>
      <trkpt lat="42.69458" lon="1.39596">
        <ele>2065.53</ele>
        <time>2016-09-27T09:47:25Z</time>
      </trkpt>
      <trkpt lat="42.69454" lon="1.39593">
        <ele>2068.41</ele>
        <time>2016-09-27T09:47:37Z</time>
      </trkpt>
      <trkpt lat="42.69451" lon="1.39587">
        <ele>2068.41</ele>
        <time>2016-09-27T09:47:48Z</time>
      </trkpt>
      <trkpt lat="42.69447" lon="1.39583">
        <ele>2070.34</ele>
        <time>2016-09-27T09:47:59Z</time>
      </trkpt>
      <trkpt lat="42.69445" lon="1.39582">
        <ele>2071.3</ele>
        <time>2016-09-27T09:48:12Z</time>
      </trkpt>
      <trkpt lat="42.6944" lon="1.39583">
        <ele>2072.26</ele>
        <time>2016-09-27T09:48:24Z</time>
      </trkpt>
      <trkpt lat="42.69439" lon="1.39585">
        <ele>2074.66</ele>
        <time>2016-09-27T09:48:36Z</time>
      </trkpt>
      <trkpt lat="42.69432" lon="1.39588">
        <ele>2075.62</ele>
        <time>2016-09-27T09:48:45Z</time>
      </trkpt>
      <trkpt lat="42.69424" lon="1.39587">
        <ele>2077.07</ele>
        <time>2016-09-27T09:48:57Z</time>
      </trkpt>
      <trkpt lat="42.69419" lon="1.396">
        <ele>2078.51</ele>
        <time>2016-09-27T09:49:08Z</time>
      </trkpt>
      <trkpt lat="42.69414" lon="1.39599">
        <ele>2080.91</ele>
        <time>2016-09-27T09:49:20Z</time>
      </trkpt>
      <trkpt lat="42.69413" lon="1.396">
        <ele>2081.39</ele>
        <time>2016-09-27T09:49:24Z</time>
      </trkpt>
      <trkpt lat="42.69405" lon="1.39607">
        <ele>2083.31</ele>
        <time>2016-09-27T09:49:37Z</time>
      </trkpt>
      <trkpt lat="42.69399" lon="1.39605">
        <ele>2085.24</ele>
        <time>2016-09-27T09:49:47Z</time>
      </trkpt>
      <trkpt lat="42.69397" lon="1.39605">
        <ele>2085.24</ele>
        <time>2016-09-27T09:49:52Z</time>
      </trkpt>
      <trkpt lat="42.69394" lon="1.39605">
        <ele>2087.16</ele>
        <time>2016-09-27T09:50:01Z</time>
      </trkpt>
      <trkpt lat="42.69393" lon="1.39606">
        <ele>2089.56</ele>
        <time>2016-09-27T09:50:15Z</time>
      </trkpt>
      <trkpt lat="42.69389" lon="1.3961">
        <ele>2091</ele>
        <time>2016-09-27T09:50:26Z</time>
      </trkpt>
      <trkpt lat="42.69387" lon="1.39611">
        <ele>2092.45</ele>
        <time>2016-09-27T09:50:45Z</time>
      </trkpt>
      <trkpt lat="42.69386" lon="1.39611">
        <ele>2092.93</ele>
        <time>2016-09-27T09:51:08Z</time>
      </trkpt>
      <trkpt lat="42.69385" lon="1.39612">
        <ele>2093.41</ele>
        <time>2016-09-27T09:51:14Z</time>
      </trkpt>
      <trkpt lat="42.69379" lon="1.3961">
        <ele>2094.37</ele>
        <time>2016-09-27T09:51:24Z</time>
      </trkpt>
      <trkpt lat="42.69373" lon="1.39614">
        <ele>2096.29</ele>
        <time>2016-09-27T09:51:36Z</time>
      </trkpt>
      <trkpt lat="42.69367" lon="1.39616">
        <ele>2098.21</ele>
        <time>2016-09-27T09:51:47Z</time>
      </trkpt>
      <trkpt lat="42.69364" lon="1.39617">
        <ele>2098.7</ele>
        <time>2016-09-27T09:51:52Z</time>
      </trkpt>
      <trkpt lat="42.69363" lon="1.39617">
        <ele>2102.54</ele>
        <time>2016-09-27T09:51:58Z</time>
      </trkpt>
      <trkpt lat="42.6936" lon="1.3962">
        <ele>2103.98</ele>
        <time>2016-09-27T09:52:12Z</time>
      </trkpt>
      <trkpt lat="42.69357" lon="1.39627">
        <ele>2103.98</ele>
        <time>2016-09-27T09:52:22Z</time>
      </trkpt>
      <trkpt lat="42.69356" lon="1.3963">
        <ele>2103.98</ele>
        <time>2016-09-27T09:52:29Z</time>
      </trkpt>
      <trkpt lat="42.69355" lon="1.39633">
        <ele>2103.98</ele>
        <time>2016-09-27T09:52:34Z</time>
      </trkpt>
      <trkpt lat="42.69352" lon="1.39631">
        <ele>2105.42</ele>
        <time>2016-09-27T09:52:45Z</time>
      </trkpt>
      <trkpt lat="42.69349" lon="1.39632">
        <ele>2107.35</ele>
        <time>2016-09-27T09:52:57Z</time>
      </trkpt>
      <trkpt lat="42.69346" lon="1.39631">
        <ele>2109.27</ele>
        <time>2016-09-27T09:53:20Z</time>
      </trkpt>
      <trkpt lat="42.69342" lon="1.39626">
        <ele>2110.23</ele>
        <time>2016-09-27T09:53:31Z</time>
      </trkpt>
      <trkpt lat="42.69341" lon="1.39626">
        <ele>2111.67</ele>
        <time>2016-09-27T09:53:40Z</time>
      </trkpt>
      <trkpt lat="42.69338" lon="1.39627">
        <ele>2114.08</ele>
        <time>2016-09-27T09:53:52Z</time>
      </trkpt>
      <trkpt lat="42.69337" lon="1.39627">
        <ele>2117.44</ele>
        <time>2016-09-27T09:53:57Z</time>
      </trkpt>
      <trkpt lat="42.69334" lon="1.39625">
        <ele>2119.36</ele>
        <time>2016-09-27T09:54:09Z</time>
      </trkpt>
      <trkpt lat="42.69331" lon="1.39623">
        <ele>2119.36</ele>
        <time>2016-09-27T09:54:31Z</time>
      </trkpt>
      <trkpt lat="42.6933" lon="1.39622">
        <ele>2119.36</ele>
        <time>2016-09-27T09:54:49Z</time>
      </trkpt>
      <trkpt lat="42.69329" lon="1.39621">
        <ele>2119.84</ele>
        <time>2016-09-27T09:55:01Z</time>
      </trkpt>
      <trkpt lat="42.69327" lon="1.39622">
        <ele>2121.77</ele>
        <time>2016-09-27T09:55:11Z</time>
      </trkpt>
      <trkpt lat="42.69321" lon="1.39623">
        <ele>2123.21</ele>
        <time>2016-09-27T09:55:21Z</time>
      </trkpt>
      <trkpt lat="42.69319" lon="1.39625">
        <ele>2125.61</ele>
        <time>2016-09-27T09:55:33Z</time>
      </trkpt>
      <trkpt lat="42.69318" lon="1.39629">
        <ele>2125.61</ele>
        <time>2016-09-27T09:55:37Z</time>
      </trkpt>
      <trkpt lat="42.69317" lon="1.39631">
        <ele>2127.05</ele>
        <time>2016-09-27T09:55:48Z</time>
      </trkpt>
      <trkpt lat="42.69316" lon="1.39629">
        <ele>2128.5</ele>
        <time>2016-09-27T09:55:58Z</time>
      </trkpt>
      <trkpt lat="42.69315" lon="1.39629">
        <ele>2129.46</ele>
        <time>2016-09-27T09:56:09Z</time>
      </trkpt>
      <trkpt lat="42.69314" lon="1.39628">
        <ele>2130.42</ele>
        <time>2016-09-27T09:56:37Z</time>
      </trkpt>
      <trkpt lat="42.69312" lon="1.39627">
        <ele>2130.9</ele>
        <time>2016-09-27T09:56:54Z</time>
      </trkpt>
      <trkpt lat="42.69311" lon="1.39625">
        <ele>2133.3</ele>
        <time>2016-09-27T09:57:09Z</time>
      </trkpt>
      <trkpt lat="42.6931" lon="1.39625">
        <ele>2133.78</ele>
        <time>2016-09-27T09:57:12Z</time>
      </trkpt>
      <trkpt lat="42.69309" lon="1.39632">
        <ele>2135.23</ele>
        <time>2016-09-27T09:57:24Z</time>
      </trkpt>
      <trkpt lat="42.69304" lon="1.39628">
        <ele>2136.67</ele>
        <time>2016-09-27T09:57:34Z</time>
      </trkpt>
      <trkpt lat="42.69304" lon="1.39629">
        <ele>2138.11</ele>
        <time>2016-09-27T09:57:45Z</time>
      </trkpt>
      <trkpt lat="42.69303" lon="1.39629">
        <ele>2140.03</ele>
        <time>2016-09-27T09:57:57Z</time>
      </trkpt>
      <trkpt lat="42.69301" lon="1.39628">
        <ele>2141.95</ele>
        <time>2016-09-27T09:58:11Z</time>
      </trkpt>
      <trkpt lat="42.69296" lon="1.39623">
        <ele>2144.36</ele>
        <time>2016-09-27T09:58:22Z</time>
      </trkpt>
      <trkpt lat="42.69296" lon="1.39616">
        <ele>2146.76</ele>
        <time>2016-09-27T09:58:36Z</time>
      </trkpt>
      <trkpt lat="42.69294" lon="1.3961">
        <ele>2148.2</ele>
        <time>2016-09-27T09:58:47Z</time>
      </trkpt>
      <trkpt lat="42.69294" lon="1.39608">
        <ele>2149.16</ele>
        <time>2016-09-27T09:59:06Z</time>
      </trkpt>
      <trkpt lat="42.69293" lon="1.39607">
        <ele>2150.61</ele>
        <time>2016-09-27T09:59:11Z</time>
      </trkpt>
      <trkpt lat="42.69293" lon="1.39605">
        <ele>2152.05</ele>
        <time>2016-09-27T09:59:22Z</time>
      </trkpt>
      <trkpt lat="42.6929" lon="1.39599">
        <ele>2154.45</ele>
        <time>2016-09-27T09:59:34Z</time>
      </trkpt>
      <trkpt lat="42.69288" lon="1.39598">
        <ele>2154.93</ele>
        <time>2016-09-27T09:59:38Z</time>
      </trkpt>
      <trkpt lat="42.69282" lon="1.39597">
        <ele>2156.86</ele>
        <time>2016-09-27T09:59:51Z</time>
      </trkpt>
      <trkpt lat="42.6928" lon="1.39592">
        <ele>2157.82</ele>
        <time>2016-09-27T10:00:02Z</time>
      </trkpt>
      <trkpt lat="42.6928" lon="1.39592">
        <ele>2159.74</ele>
        <time>2016-09-27T10:00:17Z</time>
      </trkpt>
      <trkpt lat="42.69279" lon="1.39592">
        <ele>2161.66</ele>
        <time>2016-09-27T10:00:24Z</time>
      </trkpt>
      <trkpt lat="42.69277" lon="1.39592">
        <ele>2163.1</ele>
        <time>2016-09-27T10:00:36Z</time>
      </trkpt>
      <trkpt lat="42.69273" lon="1.39592">
        <ele>2165.03</ele>
        <time>2016-09-27T10:00:47Z</time>
      </trkpt>
      <trkpt lat="42.69267" lon="1.3959">
        <ele>2166.95</ele>
        <time>2016-09-27T10:00:58Z</time>
      </trkpt>
      <trkpt lat="42.69264" lon="1.39587">
        <ele>2168.39</ele>
        <time>2016-09-27T10:01:09Z</time>
      </trkpt>
      <trkpt lat="42.69263" lon="1.39586">
        <ele>2169.83</ele>
        <time>2016-09-27T10:01:20Z</time>
      </trkpt>
      <trkpt lat="42.69263" lon="1.39586">
        <ele>2170.79</ele>
        <time>2016-09-27T10:01:35Z</time>
      </trkpt>
      <trkpt lat="42.6926" lon="1.39583">
        <ele>2171.27</ele>
        <time>2016-09-27T10:01:42Z</time>
      </trkpt>
      <trkpt lat="42.69256" lon="1.39581">
        <ele>2172.72</ele>
        <time>2016-09-27T10:01:53Z</time>
      </trkpt>
      <trkpt lat="42.69252" lon="1.39579">
        <ele>2175.12</ele>
        <time>2016-09-27T10:02:05Z</time>
      </trkpt>
      <trkpt lat="42.69249" lon="1.39575">
        <ele>2176.56</ele>
        <time>2016-09-27T10:02:16Z</time>
      </trkpt>
      <trkpt lat="42.69247" lon="1.39575">
        <ele>2177.52</ele>
        <time>2016-09-27T10:02:31Z</time>
      </trkpt>
      <trkpt lat="42.69245" lon="1.39572">
        <ele>2178.48</ele>
        <time>2016-09-27T10:02:41Z</time>
      </trkpt>
      <trkpt lat="42.69241" lon="1.39572">
        <ele>2179.93</ele>
        <time>2016-09-27T10:02:54Z</time>
      </trkpt>
      <trkpt lat="42.69237" lon="1.39568">
        <ele>2181.37</ele>
        <time>2016-09-27T10:03:02Z</time>
      </trkpt>
      <trkpt lat="42.69233" lon="1.39566">
        <ele>2182.81</ele>
        <time>2016-09-27T10:03:13Z</time>
      </trkpt>
      <trkpt lat="42.69232" lon="1.39566">
        <ele>2183.77</ele>
        <time>2016-09-27T10:03:16Z</time>
      </trkpt>
      <trkpt lat="42.6923" lon="1.39564">
        <ele>2185.21</ele>
        <time>2016-09-27T10:03:28Z</time>
      </trkpt>
      <trkpt lat="42.69224" lon="1.39558">
        <ele>2186.18</ele>
        <time>2016-09-27T10:03:40Z</time>
      </trkpt>
      <trkpt lat="42.6922" lon="1.39555">
        <ele>2188.1</ele>
        <time>2016-09-27T10:03:52Z</time>
      </trkpt>
      <trkpt lat="42.69217" lon="1.39552">
        <ele>2190.02</ele>
        <time>2016-09-27T10:04:02Z</time>
      </trkpt>
      <trkpt lat="42.69215" lon="1.39552">
        <ele>2190.98</ele>
        <time>2016-09-27T10:04:12Z</time>
      </trkpt>
      <trkpt lat="42.69213" lon="1.39552">
        <ele>2192.9</ele>
        <time>2016-09-27T10:04:25Z</time>
      </trkpt>
      <trkpt lat="42.69212" lon="1.39555">
        <ele>2194.83</ele>
        <time>2016-09-27T10:04:37Z</time>
      </trkpt>
      <trkpt lat="42.69204" lon="1.39558">
        <ele>2196.27</ele>
        <time>2016-09-27T10:04:50Z</time>
      </trkpt>
      <trkpt lat="42.69199" lon="1.39557">
        <ele>2197.23</ele>
        <time>2016-09-27T10:05:01Z</time>
      </trkpt>
      <trkpt lat="42.69195" lon="1.39555">
        <ele>2199.15</ele>
        <time>2016-09-27T10:05:12Z</time>
      </trkpt>
      <trkpt lat="42.69192" lon="1.39553">
        <ele>2200.11</ele>
        <time>2016-09-27T10:05:31Z</time>
      </trkpt>
      <trkpt lat="42.6919" lon="1.39552">
        <ele>2201.56</ele>
        <time>2016-09-27T10:05:42Z</time>
      </trkpt>
      <trkpt lat="42.69185" lon="1.39553">
        <ele>2203</ele>
        <time>2016-09-27T10:05:52Z</time>
      </trkpt>
      <trkpt lat="42.69176" lon="1.39556">
        <ele>2204.44</ele>
        <time>2016-09-27T10:06:04Z</time>
      </trkpt>
      <trkpt lat="42.69171" lon="1.39558">
        <ele>2205.88</ele>
        <time>2016-09-27T10:06:14Z</time>
      </trkpt>
      <trkpt lat="42.69169" lon="1.39557">
        <ele>2206.36</ele>
        <time>2016-09-27T10:06:17Z</time>
      </trkpt>
      <trkpt lat="42.69162" lon="1.39561">
        <ele>2208.29</ele>
        <time>2016-09-27T10:06:28Z</time>
      </trkpt>
      <trkpt lat="42.69157" lon="1.39561">
        <ele>2210.69</ele>
        <time>2016-09-27T10:06:41Z</time>
      </trkpt>
      <trkpt lat="42.69152" lon="1.3956">
        <ele>2211.17</ele>
        <time>2016-09-27T10:06:52Z</time>
      </trkpt>
      <trkpt lat="42.69147" lon="1.39562">
        <ele>2213.09</ele>
        <time>2016-09-27T10:07:04Z</time>
      </trkpt>
      <trkpt lat="42.69147" lon="1.39562">
        <ele>2213.09</ele>
        <time>2016-09-27T10:07:28Z</time>
      </trkpt>
      <trkpt lat="42.69147" lon="1.39564">
        <ele>2213.09</ele>
        <time>2016-09-27T10:07:35Z</time>
      </trkpt>
      <trkpt lat="42.69141" lon="1.39577">
        <ele>2213.57</ele>
        <time>2016-09-27T10:07:47Z</time>
      </trkpt>
      <trkpt lat="42.69136" lon="1.39591">
        <ele>2215.01</ele>
        <time>2016-09-27T10:08:00Z</time>
      </trkpt>
      <trkpt lat="42.69134" lon="1.39594">
        <ele>2215.5</ele>
        <time>2016-09-27T10:08:04Z</time>
      </trkpt>
      <trkpt lat="42.69127" lon="1.39602">
        <ele>2216.46</ele>
        <time>2016-09-27T10:08:17Z</time>
      </trkpt>
      <trkpt lat="42.69126" lon="1.39613">
        <ele>2217.42</ele>
        <time>2016-09-27T10:08:30Z</time>
      </trkpt>
      <trkpt lat="42.69126" lon="1.39615">
        <ele>2218.38</ele>
        <time>2016-09-27T10:08:32Z</time>
      </trkpt>
      <trkpt lat="42.69125" lon="1.39624">
        <ele>2219.34</ele>
        <time>2016-09-27T10:08:43Z</time>
      </trkpt>
      <trkpt lat="42.69121" lon="1.39632">
        <ele>2220.78</ele>
        <time>2016-09-27T10:08:55Z</time>
      </trkpt>
      <trkpt lat="42.6912" lon="1.39636">
        <ele>2221.26</ele>
        <time>2016-09-27T10:08:59Z</time>
      </trkpt>
      <trkpt lat="42.69119" lon="1.39648">
        <ele>2222.71</ele>
        <time>2016-09-27T10:09:11Z</time>
      </trkpt>
      <trkpt lat="42.69118" lon="1.39649">
        <ele>2222.71</ele>
        <time>2016-09-27T10:09:12Z</time>
      </trkpt>
      <trkpt lat="42.69117" lon="1.39651">
        <ele>2223.67</ele>
        <time>2016-09-27T10:09:28Z</time>
      </trkpt>
      <trkpt lat="42.69117" lon="1.39652">
        <ele>2224.63</ele>
        <time>2016-09-27T10:09:53Z</time>
      </trkpt>
      <trkpt lat="42.69118" lon="1.39653">
        <ele>2224.63</ele>
        <time>2016-09-27T10:09:59Z</time>
      </trkpt>
      <trkpt lat="42.6912" lon="1.39661">
        <ele>2225.11</ele>
        <time>2016-09-27T10:10:11Z</time>
      </trkpt>
      <trkpt lat="42.6912" lon="1.3966">
        <ele>2225.59</ele>
        <time>2016-09-27T10:10:26Z</time>
      </trkpt>
      <trkpt lat="42.69118" lon="1.39661">
        <ele>2225.59</ele>
        <time>2016-09-27T10:10:44Z</time>
      </trkpt>
      <trkpt lat="42.69118" lon="1.39661">
        <ele>2226.07</ele>
        <time>2016-09-27T10:11:07Z</time>
      </trkpt>
      <trkpt lat="42.69117" lon="1.39662">
        <ele>2226.07</ele>
        <time>2016-09-27T10:11:27Z</time>
      </trkpt>
      <trkpt lat="42.69118" lon="1.39661">
        <ele>2226.55</ele>
        <time>2016-09-27T10:11:42Z</time>
      </trkpt>
      <trkpt lat="42.69118" lon="1.3966">
        <ele>2226.55</ele>
        <time>2016-09-27T10:11:57Z</time>
      </trkpt>
      <trkpt lat="42.69115" lon="1.39656">
        <ele>2226.55</ele>
        <time>2016-09-27T10:12:16Z</time>
      </trkpt>
      <trkpt lat="42.69114" lon="1.39657">
        <ele>2226.55</ele>
        <time>2016-09-27T10:12:34Z</time>
      </trkpt>
      <trkpt lat="42.69115" lon="1.39656">
        <ele>2226.55</ele>
        <time>2016-09-27T10:12:59Z</time>
      </trkpt>
      <trkpt lat="42.69115" lon="1.39656">
        <ele>2226.55</ele>
        <time>2016-09-27T10:13:11Z</time>
      </trkpt>
    </trkseg>
  </trk>
</gpx>